PORTS® Data Listing: 8775237 Port Aransas, TX

CO-OPS RAW PORTS DATA

************************      PRELIMINARY DATA      ************************** 

     THIS RAW DATA HAS NOT BEEN SUBJECT TO THE NATIONAL OCEAN SERVICE'S        
     QUALITY CONTROL OR QUALITY ASSURANCE PROCEDURES AND DOES NOT MEET         
     THE CRITERIA AND STANDARDS OF OFFICIAL NATIONAL OCEAN SERVICE             
     DATA.  IT IS RELEASED FOR LIMITED PUBLIC USE AS PRELIMINARY DATA TO       
     BE USED ONLY WITH APPROPRIATE CAUTION.                                    

************************      PRELIMINARY DATA      ************************** 


       CD   -   Calendar date
       T    -   Time
       TZ   -   Timezone
       PW   -   Predicted water level (feet above MLLW)
       OW   -   Observed water level (feet above MLLW)
       WS   -   Wind speed (knots)
       WD   -   Wind direction (degrees true)
       WG   -   Wind gust (knots)
       AT   -   Air temperature (degrees farenheit)
       WT   -   Water temperature (degrees farenheit)
       AP   -   Air pressure (millibars)
       SA   -   Salinty (PSU - Practical Salinity Units)
       SG   -   Specific gravity
       RH   -   Relative humidity
       AG   -   Air gap (feet)
       VI   -   Visibility (nautical miles)

       ** NOTE **
       A variable that has its data fields filled with "9"s, indicates that
       data was not collected for that sample period.
       **********


STATION NAME: Port Aransas (8775237)
****************************************************************************************************
    CD       T    TZ    PW     OW    WS   WD   WG    AT    WT    AP    SA    SG     RH    AG   VI
****************************************************************************************************
2019/11/11 15:30 CST    0.90   1.93    3   42    4  75.6  68.5 1014.6 -9.9 -9.999 -99.9 -99.99 -9.99
2019/11/11 15:36 CST    0.91   1.93    2   29    3  75.7  68.5 1014.8 -9.9 -9.999 -99.9 -99.99 -9.99
2019/11/11 15:42 CST    0.91   1.98    3   32    4  75.9  68.5 1014.7 -9.9 -9.999 -99.9 -99.99 -9.99
2019/11/11 15:48 CST    0.91   1.88    2   33    3  75.9  68.5 1014.8 -9.9 -9.999 -99.9 -99.99 -9.99
2019/11/11 15:54 CST    0.91   1.87    3   52    3  75.7  68.9 1014.8 -9.9 -9.999 -99.9 -99.99 -9.99
2019/11/11 16:00 CST    0.91   1.89    4   56    4  75.6  68.9 1014.7 -9.9 -9.999 -99.9 -99.99 -9.99
2019/11/11 16:06 CST    0.91   1.94    4   47    4  75.2  69.1 1014.7 -9.9 -9.999 -99.9 -99.99 -9.99
2019/11/11 16:12 CST    0.90   1.90    2   43    4  75.4  69.3 1014.9 -9.9 -9.999 -99.9 -99.99 -9.99
2019/11/11 16:18 CST    0.90   1.94    2   57    2  75.4  69.3 1015.0 -9.9 -9.999 -99.9 -99.99 -9.99
2019/11/11 16:24 CST    0.90   1.97    1   47    2  75.2  69.4 1015.0 -9.9 -9.999 -99.9 -99.99 -9.99
2019/11/11 16:30 CST    0.90   1.89    2   43    3  75.2  69.4 1015.1 -9.9 -9.999 -99.9 -99.99 -9.99
2019/11/11 16:36 CST    0.90   1.89    3   41    3  74.8  69.4 1015.2 -9.9 -9.999 -99.9 -99.99 -9.99
2019/11/11 16:42 CST    0.90   1.86    3   51    3  74.7  69.4 1015.2 -9.9 -9.999 -99.9 -99.99 -9.99
2019/11/11 16:48 CST    0.89   1.87    2   40    3  74.8  69.4 1015.2 -9.9 -9.999 -99.9 -99.99 -9.99
2019/11/11 16:54 CST    0.89   1.92    1   46    1  74.8  69.6 1015.2 -9.9 -9.999 -99.9 -99.99 -9.99
2019/11/11 17:00 CST    0.89   1.95    1   45    1  74.8  69.6 1015.2 -9.9 -9.999 -99.9 -99.99 -9.99
2019/11/11 17:06 CST    0.88   1.91    2   42    2  74.7  69.6 1015.2 -9.9 -9.999 -99.9 -99.99 -9.99
2019/11/11 17:12 CST    0.88   1.83    1   43    2  74.5  69.6 1015.4 -9.9 -9.999 -99.9 -99.99 -9.99
2019/11/11 17:18 CST    0.87   1.80    3   25    6  73.9  69.8 1015.4 -9.9 -9.999 -99.9 -99.99 -9.99
2019/11/11 17:24 CST    0.87   1.82    3   51    4  73.6  69.8 1015.5 -9.9 -9.999 -99.9 -99.99 -9.99
2019/11/11 17:30 CST    0.87   1.89    3   26    4  73.4  69.8 1015.7 -9.9 -9.999 -99.9 -99.99 -9.99
2019/11/11 17:36 CST    0.86   1.81    3   17    4  73.4  69.8 1015.9 -9.9 -9.999 -99.9 -99.99 -9.99
2019/11/11 17:42 CST    0.86   1.86   14  342   24  68.0  69.8 1016.7 -9.9 -9.999 -99.9 -99.99 -9.99
2019/11/11 17:48 CST    0.85   1.95   25  352   33  59.4  69.8 1017.1 -9.9 -9.999 -99.9 -99.99 -9.99
2019/11/11 17:54 CST    0.85   2.05   26  351   32  58.3  69.8 1017.3 -9.9 -9.999 -99.9 -99.99 -9.99
2019/11/11 18:00 CST    0.85   1.84   24    1   35  57.6  69.8 1017.6 -9.9 -9.999 -99.9 -99.99 -9.99
2019/11/11 18:06 CST    0.84   2.08   26  353   35  57.4  70.0 1017.8 -9.9 -9.999 -99.9 -99.99 -9.99
2019/11/11 18:12 CST    0.84   2.04   21  354   30  57.2  70.0 1018.1 -9.9 -9.999 -99.9 -99.99 -9.99
2019/11/11 18:18 CST    0.84   1.95   23  358   30  56.8  70.0 1018.4 -9.9 -9.999 -99.9 -99.99 -9.99
2019/11/11 18:24 CST    0.83   1.86   24  352   30  55.4  70.0 1018.5 -9.9 -9.999 -99.9 -99.99 -9.99
2019/11/11 18:30 CST    0.83   1.81   23  351   29  54.3  70.0 1018.8 -9.9 -9.999 -99.9 -99.99 -9.99
2019/11/11 18:36 CST    0.83   1.80   23  349   26  53.6  70.0 1019.2 -9.9 -9.999 -99.9 -99.99 -9.99
2019/11/11 18:42 CST    0.83   1.79   22  352   30  53.2  70.0 1019.6 -9.9 -9.999 -99.9 -99.99 -9.99
2019/11/11 18:48 CST    0.82   1.76   21  348   28  52.2  70.0 1019.6 -9.9 -9.999 -99.9 -99.99 -9.99
2019/11/11 18:54 CST    0.82   1.67   24  355   29  51.8  70.0 1019.9 -9.9 -9.999 -99.9 -99.99 -9.99
2019/11/11 19:00 CST    0.82   1.64   25  353   30  51.4  70.0 1020.3 -9.9 -9.999 -99.9 -99.99 -9.99
2019/11/11 19:06 CST    0.82   1.67   25  355   31  51.6  70.0 1020.5 -9.9 -9.999 -99.9 -99.99 -9.99
2019/11/11 19:12 CST    0.82   1.77   29    3   37  51.1  70.0 1020.5 -9.9 -9.999 -99.9 -99.99 -9.99
2019/11/11 19:18 CST    0.81   1.87   23  357   34  51.3  70.0 1020.7 -9.9 -9.999 -99.9 -99.99 -9.99
2019/11/11 19:24 CST    0.81   1.84   24    1   32  50.9  70.0 1020.8 -9.9 -9.999 -99.9 -99.99 -9.99
2019/11/11 19:30 CST    0.81   1.77   23    4   31  50.4  69.8 1021.0 -9.9 -9.999 -99.9 -99.99 -9.99
2019/11/11 19:36 CST    0.81   1.68   25    2   31  50.0  69.8 1021.1 -9.9 -9.999 -99.9 -99.99 -9.99
2019/11/11 19:42 CST    0.81   1.62   23    1   30  49.8  69.8 1021.2 -9.9 -9.999 -99.9 -99.99 -9.99
2019/11/11 19:48 CST    0.81   1.59   24  358   32  49.6  69.8 1021.4 -9.9 -9.999 -99.9 -99.99 -9.99
2019/11/11 19:54 CST    0.81   1.57   22  357   31  49.5  69.8 1021.5 -9.9 -9.999 -99.9 -99.99 -9.99
2019/11/11 20:00 CST    0.80   1.56   22  359   28  49.1  69.8 1021.6 -9.9 -9.999 -99.9 -99.99 -9.99
2019/11/11 20:06 CST    0.80   1.55   24  351   30  48.7  69.8 1021.7 -9.9 -9.999 -99.9 -99.99 -9.99
2019/11/11 20:12 CST    0.80   1.52   27  354   34  47.8  69.8 1021.6 -9.9 -9.999 -99.9 -99.99 -9.99
2019/11/11 20:18 CST    0.80   1.50   28  354   34  47.5  69.8 1021.7 -9.9 -9.999 -99.9 -99.99 -9.99
2019/11/11 20:24 CST    0.80   1.52   27  354   36  47.7  69.8 1022.1 -9.9 -9.999 -99.9 -99.99 -9.99
2019/11/11 20:30 CST    0.79   1.50   25  356   33  47.1  69.8 1022.2 -9.9 -9.999 -99.9 -99.99 -9.99
2019/11/11 20:36 CST    0.79   1.48   28  355   35  46.8  69.8 1022.4 -9.9 -9.999 -99.9 -99.99 -9.99
2019/11/11 20:42 CST    0.79   1.45   27  359   33  46.2  69.8 1022.5 -9.9 -9.999 -99.9 -99.99 -9.99
2019/11/11 20:48 CST    0.79   1.45   24  356   34  46.6  69.8 1022.9 -9.9 -9.999 -99.9 -99.99 -9.99
2019/11/11 20:54 CST    0.79   1.50   25  351   31  45.9  69.8 1023.4 -9.9 -9.999 -99.9 -99.99 -9.99
2019/11/11 21:00 CST    0.79   1.53   20  352   29  46.0  69.8 1023.3 -9.9 -9.999 -99.9 -99.99 -9.99
2019/11/11 21:06 CST    0.79   1.57   22  340   28  45.7  69.8 1023.5 -9.9 -9.999 -99.9 -99.99 -9.99
2019/11/11 21:12 CST    0.79   1.50   18  346   29  45.1  69.8 1023.6 -9.9 -9.999 -99.9 -99.99 -9.99
2019/11/11 21:18 CST    0.79   1.45   20  342   30  44.6  69.8 1023.9 -9.9 -9.999 -99.9 -99.99 -9.99
2019/11/11 21:24 CST    0.79   1.46   25  351   33  43.5  69.8 1023.6 -9.9 -9.999 -99.9 -99.99 -9.99
2019/11/11 21:30 CST    0.79   1.45   28  355   37  43.9  69.8 1023.7 -9.9 -9.999 -99.9 -99.99 -9.99
2019/11/11 21:36 CST    0.79   1.41   22  348   28  43.9  69.6 1024.0 -9.9 -9.999 -99.9 -99.99 -9.99
2019/11/11 21:42 CST    0.79   1.44   21  346   32  44.1  69.6 1024.4 -9.9 -9.999 -99.9 -99.99 -9.99
2019/11/11 21:48 CST    0.79   1.41   21  345   28  43.7  69.6 1024.5 -9.9 -9.999 -99.9 -99.99 -9.99
2019/11/11 21:54 CST    0.80   1.40   22  349   30  43.3  69.6 1024.4 -9.9 -9.999 -99.9 -99.99 -9.99
2019/11/11 22:00 CST    0.80   1.48   23  344   28  43.3  69.6 1024.5 -9.9 -9.999 -99.9 -99.99 -9.99
2019/11/11 22:06 CST    0.80   1.52   19  344   30  43.5  69.6 1024.6 -9.9 -9.999 -99.9 -99.99 -9.99
2019/11/11 22:12 CST    0.80   1.50   20  345   27  42.8  69.6 1024.6 -9.9 -9.999 -99.9 -99.99 -9.99
2019/11/11 22:18 CST    0.81   1.49   17  351   26  43.7  69.6 1025.0 -9.9 -9.999 -99.9 -99.99 -9.99
2019/11/11 22:24 CST    0.81   1.56   22  344   29  42.8  69.6 1025.0 -9.9 -9.999 -99.9 -99.99 -9.99
2019/11/11 22:30 CST    0.82   1.57   23  347   31  43.2  69.6 1024.9 -9.9 -9.999 -99.9 -99.99 -9.99
2019/11/11 22:36 CST    0.82   1.56   25  351   34  43.5  69.6 1024.6 -9.9 -9.999 -99.9 -99.99 -9.99
2019/11/11 22:42 CST    0.82   1.52   25  352   31  43.2  69.6 1024.5 -9.9 -9.999 -99.9 -99.99 -9.99
2019/11/11 22:48 CST    0.83   1.49   26  359   31  42.8  69.6 1024.1 -9.9 -9.999 -99.9 -99.99 -9.99
2019/11/11 22:54 CST    0.83   1.42   22  358   32  43.0  69.6 1024.2 -9.9 -9.999 -99.9 -99.99 -9.99
2019/11/11 23:00 CST    0.84   1.39   23  354   31  41.9  69.6 1024.5 -9.9 -9.999 -99.9 -99.99 -9.99
2019/11/11 23:06 CST    0.84   1.41   22  358   28  41.9  69.6 1024.1 -9.9 -9.999 -99.9 -99.99 -9.99
2019/11/11 23:12 CST    0.85   1.46   27  347   34  42.1  69.6 1024.3 -9.9 -9.999 -99.9 -99.99 -9.99
2019/11/11 23:18 CST    0.85   1.54   22  349   31  42.6  69.4 1024.9 -9.9 -9.999 -99.9 -99.99 -9.99
2019/11/11 23:24 CST    0.86   1.66   18  341   25  42.8  69.4 1026.0 -9.9 -9.999 -99.9 -99.99 -9.99
2019/11/11 23:30 CST    0.86   1.71   22  354   31  42.8  69.4 1025.8 -9.9 -9.999 -99.9 -99.99 -9.99
2019/11/11 23:36 CST    0.87   1.69   21  344   26  42.6  69.4 1026.5 -9.9 -9.999 -99.9 -99.99 -9.99
2019/11/11 23:42 CST    0.87   1.63   14  337   26  42.8  69.4 1028.3 -9.9 -9.999 -99.9 -99.99 -9.99
2019/11/11 23:48 CST    0.87   1.59   14  312   21  42.8  69.4 1028.9 -9.9 -9.999 -99.9 -99.99 -9.99
2019/11/11 23:54 CST    0.88   1.59   22  346   28  42.3  69.4 1025.7 -9.9 -9.999 -99.9 -99.99 -9.99
2019/11/12 00:00 CST    0.88   1.66   23  356   30  42.4  69.4 1024.0 -9.9 -9.999 -99.9 -99.99 -9.99
2019/11/12 00:06 CST    0.89   1.68   21  333   27  41.7  69.4 1024.9 -9.9 -9.999 -99.9 -99.99 -9.99
2019/11/12 00:12 CST    0.89   1.69   20  341   27  42.1  69.4 1025.1 -9.9 -9.999 -99.9 -99.99 -9.99
2019/11/12 00:18 CST    0.89   1.57   24  349   29  41.5  69.4 1025.3 -9.9 -9.999 -99.9 -99.99 -9.99
2019/11/12 00:24 CST    0.90   1.45   21  347   31  41.2  69.4 1026.0 -9.9 -9.999 -99.9 -99.99 -9.99
2019/11/12 00:30 CST    0.90   1.47   25  354   31  41.4  69.4 1026.4 -9.9 -9.999 -99.9 -99.99 -9.99
2019/11/12 00:36 CST    0.90   1.62   21  356   29  41.7  69.3 1026.4 -9.9 -9.999 -99.9 -99.99 -9.99
2019/11/12 00:42 CST    0.91   1.76   20  351   28  41.0  69.3 1026.6 -9.9 -9.999 -99.9 -99.99 -9.99
2019/11/12 00:48 CST    0.91   1.85   19  355   28  41.7  68.9 1026.7 -9.9 -9.999 -99.9 -99.99 -9.99
2019/11/12 00:54 CST    0.91   1.78   17  338   23  41.0  68.9 1026.7 -9.9 -9.999 -99.9 -99.99 -9.99
2019/11/12 01:00 CST    0.91   1.60   17  343   24  41.4  68.9 1026.7 -9.9 -9.999 -99.9 -99.99 -9.99
2019/11/12 01:06 CST    0.91   1.54   17  340   27  41.4  68.9 1026.8 -9.9 -9.999 -99.9 -99.99 -9.99
2019/11/12 01:12 CST    0.91   1.56   18  341   24  40.6  68.9 1026.9 -9.9 -9.999 -99.9 -99.99 -9.99
2019/11/12 01:18 CST    0.91   1.55   23  354   28  41.0  68.7 1026.9 -9.9 -9.999 -99.9 -99.99 -9.99
2019/11/12 01:24 CST    0.91   1.59   19  346   27  40.8  68.5 1027.0 -9.9 -9.999 -99.9 -99.99 -9.99
2019/11/12 01:30 CST    0.91   1.68   21  345   29  40.5  68.4 1027.0 -9.9 -9.999 -99.9 -99.99 -9.99
2019/11/12 01:36 CST    0.90   1.73   21  348   28  40.8  68.0 1027.4 -9.9 -9.999 -99.9 -99.99 -9.99
2019/11/12 01:42 CST    0.90   1.70   18  348   27  40.8  68.0 1027.3 -9.9 -9.999 -99.9 -99.99 -9.99
2019/11/12 01:48 CST    0.89   1.54   22  342   31  40.1  67.8 1027.2 -9.9 -9.999 -99.9 -99.99 -9.99
2019/11/12 01:54 CST    0.89   1.41   24  350   31  39.9  67.8 1027.2 -9.9 -9.999 -99.9 -99.99 -9.99
2019/11/12 02:00 CST    0.88   1.40   15  345   28  40.8  67.8 1027.4 -9.9 -9.999 -99.9 -99.99 -9.99
2019/11/12 02:06 CST    0.88   1.43   21  349   25  39.9  67.5 1027.5 -9.9 -9.999 -99.9 -99.99 -9.99
2019/11/12 02:12 CST    0.87   1.43   17  341   24  40.3  67.5 1027.6 -9.9 -9.999 -99.9 -99.99 -9.99
2019/11/12 02:18 CST    0.86   1.46   24  346   30  39.4  67.3 1027.4 -9.9 -9.999 -99.9 -99.99 -9.99
2019/11/12 02:24 CST    0.85   1.44   23  352   31  39.9  67.1 1027.5 -9.9 -9.999 -99.9 -99.99 -9.99
2019/11/12 02:30 CST    0.84   1.42   23  351   32  39.6  67.1 1027.6 -9.9 -9.999 -99.9 -99.99 -9.99
2019/11/12 02:36 CST    0.83   1.39   19  343   29  39.9  67.1 1027.8 -9.9 -9.999 -99.9 -99.99 -9.99
2019/11/12 02:42 CST    0.81   1.40   20  345   28  39.7  67.1 1027.9 -9.9 -9.999 -99.9 -99.99 -9.99
2019/11/12 02:48 CST    0.80   1.40   17  340   27  39.7  66.9 1027.9 -9.9 -9.999 -99.9 -99.99 -9.99
2019/11/12 02:54 CST    0.79   1.39   18  345   26  39.6  66.9 1028.0 -9.9 -9.999 -99.9 -99.99 -9.99
2019/11/12 03:00 CST    0.78   1.32   21  347   30  39.4  66.9 1028.2 -9.9 -9.999 -99.9 -99.99 -9.99
2019/11/12 03:06 CST    0.76   1.25   20  342   25  39.2  66.9 1028.2 -9.9 -9.999 -99.9 -99.99 -9.99
2019/11/12 03:12 CST    0.75   1.20   21  332   28  38.8  66.9 1028.4 -9.9 -9.999 -99.9 -99.99 -9.99
2019/11/12 03:18 CST    0.73   1.19   18  334   30  38.8  66.9 1028.6 -9.9 -9.999 -99.9 -99.99 -9.99
2019/11/12 03:24 CST    0.72   1.15   22  344   29  38.7  66.9 1028.7 -9.9 -9.999 -99.9 -99.99 -9.99
2019/11/12 03:30 CST    0.70   1.15   17  335   25  38.5  66.9 1029.0 -9.9 -9.999 -99.9 -99.99 -9.99
2019/11/12 03:36 CST    0.69   1.13   21  339   32  38.5  66.9 1029.2 -9.9 -9.999 -99.9 -99.99 -9.99
2019/11/12 03:42 CST    0.67   1.12   19  337   30  38.5  66.9 1029.2 -9.9 -9.999 -99.9 -99.99 -9.99
2019/11/12 03:48 CST    0.65   1.15   19  344   28  38.7  66.9 1029.3 -9.9 -9.999 -99.9 -99.99 -9.99
2019/11/12 03:54 CST    0.64   1.15   21  345   26  38.1  66.7 1029.2 -9.9 -9.999 -99.9 -99.99 -9.99
2019/11/12 04:00 CST    0.62   1.15   20  350   30  38.8  66.7 1029.3 -9.9 -9.999 -99.9 -99.99 -9.99
2019/11/12 04:06 CST    0.61   1.12   19  340   27  38.7  66.7 1029.4 -9.9 -9.999 -99.9 -99.99 -9.99
2019/11/12 04:12 CST    0.59   1.12   20  342   24  37.8  66.7 1029.3 -9.9 -9.999 -99.9 -99.99 -9.99
2019/11/12 04:18 CST    0.57   1.10   23  348   29  37.8  66.7 1029.2 -9.9 -9.999 -99.9 -99.99 -9.99
2019/11/12 04:24 CST    0.55   1.14   20  341   28  37.9  66.6 1029.2 -9.9 -9.999 -99.9 -99.99 -9.99
2019/11/12 04:30 CST    0.54   1.13   18  344   28  38.1  66.6 1029.3 -9.9 -9.999 -99.9 -99.99 -9.99
2019/11/12 04:36 CST    0.52   1.11   20  346   25  37.9  66.6 1029.2 -9.9 -9.999 -99.9 -99.99 -9.99
2019/11/12 04:42 CST    0.50   1.10   22  350   28  37.0  66.4 1029.0 -9.9 -9.999 -99.9 -99.99 -9.99
2019/11/12 04:48 CST    0.48   1.08   17  342   29  37.0  66.4 1029.5 -9.9 -9.999 -99.9 -99.99 -9.99
2019/11/12 04:54 CST    0.47   1.05   19  347   30  37.6  66.4 1029.3 -9.9 -9.999 -99.9 -99.99 -9.99
2019/11/12 05:00 CST    0.45   1.08   23  351   28  37.0  66.4 1029.3 -9.9 -9.999 -99.9 -99.99 -9.99
2019/11/12 05:06 CST    0.43   1.09   18  343   26  37.0  66.2 1029.3 -9.9 -9.999 -99.9 -99.99 -9.99
2019/11/12 05:12 CST    0.41   1.09   19  344   27  36.9  66.2 1029.4 -9.9 -9.999 -99.9 -99.99 -9.99
2019/11/12 05:18 CST    0.39   1.05   19  348   26  37.2  66.2 1029.5 -9.9 -9.999 -99.9 -99.99 -9.99
2019/11/12 05:24 CST    0.37   0.99   20  345   25  36.9  66.2 1029.4 -9.9 -9.999 -99.9 -99.99 -9.99
2019/11/12 05:30 CST    0.36   0.95   18  347   26  37.8  66.0 1029.7 -9.9 -9.999 -99.9 -99.99 -9.99
2019/11/12 05:36 CST    0.34   0.93   19  349   27  37.2  66.0 1029.7 -9.9 -9.999 -99.9 -99.99 -9.99
2019/11/12 05:42 CST    0.32   0.92   18  349   25  37.4  65.8 1029.7 -9.9 -9.999 -99.9 -99.99 -9.99
2019/11/12 05:48 CST    0.30   0.92   20  340   26  37.2  65.8 1029.5 -9.9 -9.999 -99.9 -99.99 -9.99
2019/11/12 05:54 CST    0.29   0.92   19  342   28  37.8  65.7 1029.7 -9.9 -9.999 -99.9 -99.99 -9.99
2019/11/12 06:00 CST    0.27   0.90   18  348   26  37.4  65.5 1029.8 -9.9 -9.999 -99.9 -99.99 -9.99
2019/11/12 06:06 CST    0.25   0.83   21  347   29  37.0  65.5 1029.7 -9.9 -9.999 -99.9 -99.99 -9.99
2019/11/12 06:12 CST    0.24   0.80   19  339   25  37.0  65.5 1029.8 -9.9 -9.999 -99.9 -99.99 -9.99
2019/11/12 06:18 CST    0.22   0.76   20  342   28  37.4  65.5 1029.8 -9.9 -9.999 -99.9 -99.99 -9.99
2019/11/12 06:24 CST    0.20   0.75   19  342   25  37.4  65.3 1029.7 -9.9 -9.999 -99.9 -99.99 -9.99
2019/11/12 06:30 CST    0.19   0.70   16  338   29  37.2  65.3 1029.8 -9.9 -9.999 -99.9 -99.99 -9.99
2019/11/12 06:36 CST    0.18   0.67   19  350   26  37.8  65.3 1030.1 -9.9 -9.999 -99.9 -99.99 -9.99
2019/11/12 06:42 CST    0.16   0.62   18  341   28  37.6  65.1 1030.5 -9.9 -9.999 -99.9 -99.99 -9.99
2019/11/12 06:48 CST    0.15   0.63   17  342   27  37.4  65.1 1030.6 -9.9 -9.999 -99.9 -99.99 -9.99
2019/11/12 06:54 CST    0.14   0.64   19  338   27  37.2  64.9 1030.8 -9.9 -9.999 -99.9 -99.99 -9.99
2019/11/12 07:00 CST    0.13   0.67   18  343   24  37.0  64.9 1030.9 -9.9 -9.999 -99.9 -99.99 -9.99
2019/11/12 07:06 CST    0.12   0.65   19  342   24  37.0  64.8 1031.0 -9.9 -9.999 -99.9 -99.99 -9.99
2019/11/12 07:12 CST    0.11   0.60   19  337   26  36.9  64.8 1031.2 -9.9 -9.999 -99.9 -99.99 -9.99
2019/11/12 07:18 CST    0.10   0.55   17  338   23  37.0  64.8 1031.4 -9.9 -9.999 -99.9 -99.99 -9.99
2019/11/12 07:24 CST    0.09   0.52   21  347   27  36.3  64.6 1031.1 -9.9 -9.999 -99.9 -99.99 -9.99
2019/11/12 07:30 CST    0.09   0.53   19  344   27  36.9  64.6 1031.2 -9.9 -9.999 -99.9 -99.99 -9.99
2019/11/12 07:36 CST    0.08   0.56   20  341   27  36.9  64.4 1031.4 -9.9 -9.999 -99.9 -99.99 -9.99
2019/11/12 07:42 CST    0.07   0.59   22  338   28  36.3  64.4 1031.5 -9.9 -9.999 -99.9 -99.99 -9.99
2019/11/12 07:48 CST    0.07   0.60   18  346   24  36.7  64.2 1031.6 -9.9 -9.999 -99.9 -99.99 -9.99
2019/11/12 07:54 CST    0.06   0.62   19  345   27  36.3  64.2 1031.6 -9.9 -9.999 -99.9 -99.99 -9.99
2019/11/12 08:00 CST    0.06   0.66   19  341   28  36.5  64.0 1031.5 -9.9 -9.999 -99.9 -99.99 -9.99
2019/11/12 08:06 CST    0.06   0.62   20  342   26  36.3  63.9 1031.5 -9.9 -9.999 -99.9 -99.99 -9.99
2019/11/12 08:12 CST    0.05   0.61   21  345   25  36.3  63.9 1031.7 -9.9 -9.999 -99.9 -99.99 -9.99
2019/11/12 08:18 CST    0.05   0.63   17  336   25  36.5  63.7 1031.9 -9.9 -9.999 -99.9 -99.99 -9.99
2019/11/12 08:24 CST    0.05   0.64   19  350   26  36.1  63.7 1031.7 -9.9 -9.999 -99.9 -99.99 -9.99
2019/11/12 08:30 CST    0.05   0.63   17  336   23  36.5  63.7 1032.1 -9.9 -9.999 -99.9 -99.99 -9.99
2019/11/12 08:36 CST    0.05   0.60   17  341   25  36.7  63.5 1032.2 -9.9 -9.999 -99.9 -99.99 -9.99
2019/11/12 08:42 CST    0.05   0.60   17  341   25  36.5  63.5 1032.4 -9.9 -9.999 -99.9 -99.99 -9.99
2019/11/12 08:48 CST    0.05   0.59   16  337   24  36.0  63.3 1032.6 -9.9 -9.999 -99.9 -99.99 -9.99
2019/11/12 08:54 CST    0.05   0.61   15  342   22  36.9  63.3 1032.7 -9.9 -9.999 -99.9 -99.99 -9.99
2019/11/12 09:00 CST    0.06   0.63   13  331   23  36.1  63.1 1032.8 -9.9 -9.999 -99.9 -99.99 -9.99
2019/11/12 09:06 CST    0.06   0.69   18  340   23  36.7  63.1 1032.9 -9.9 -9.999 -99.9 -99.99 -9.99
2019/11/12 09:12 CST    0.06   0.72   16  339   22  37.0  63.0 1033.0 -9.9 -9.999 -99.9 -99.99 -9.99
2019/11/12 09:18 CST    0.07   0.76   15  332   23  36.9  62.8 1033.0 -9.9 -9.999 -99.9 -99.99 -9.99
2019/11/12 09:24 CST    0.07   0.73   15  332   23  37.2  62.8 1033.2 -9.9 -9.999 -99.9 -99.99 -9.99
2019/11/12 09:30 CST    0.08   0.66   13  334   21  37.2  62.8 1033.3 -9.9 -9.999 -99.9 -99.99 -9.99
2019/11/12 09:36 CST    0.09   0.68   16  341   22  36.9  62.6 1033.1 -9.9 -9.999 -99.9 -99.99 -9.99
2019/11/12 09:42 CST    0.09   0.72   16  334   25  36.3  62.6 1033.1 -9.9 -9.999 -99.9 -99.99 -9.99
2019/11/12 09:48 CST    0.10   0.81   18  338   26  36.1  62.4 1033.2 -9.9 -9.999 -99.9 -99.99 -9.99
2019/11/12 09:54 CST    0.11   0.74   17  338   24  36.1  62.4 1033.2 -9.9 -9.999 -99.9 -99.99 -9.99
2019/11/12 10:00 CST    0.12   0.64   16  332   23  35.8  62.4 1033.5 -9.9 -9.999 -99.9 -99.99 -9.99
2019/11/12 10:06 CST    0.13   0.56   15  333   28  36.0  62.4 1033.6 -9.9 -9.999 -99.9 -99.99 -9.99
2019/11/12 10:12 CST    0.15   0.85   14  327   23  36.0  61.9 1033.5 -9.9 -9.999 -99.9 -99.99 -9.99
2019/11/12 10:18 CST    0.16   0.81   14  334   21  35.6  61.9 1033.7 -9.9 -9.999 -99.9 -99.99 -9.99
2019/11/12 10:24 CST    0.17   0.59   15  333   27  35.6  61.9 1033.6 -9.9 -9.999 -99.9 -99.99 -9.99
2019/11/12 10:30 CST    0.19   0.87   17  338   25  35.2  60.8 1033.5 -9.9 -9.999 -99.9 -99.99 -9.99
2019/11/12 10:36 CST    0.20   0.79   16  338   23  35.1  61.2 1033.6 -9.9 -9.999 -99.9 -99.99 -9.99
2019/11/12 10:42 CST    0.22   0.78   17  339   24  35.4  61.2 1033.4 -9.9 -9.999 -99.9 -99.99 -9.99
2019/11/12 10:48 CST    0.23   0.84   17  341   23  35.4  61.0 1033.4 -9.9 -9.999 -99.9 -99.99 -9.99
2019/11/12 10:54 CST    0.25   0.82   17  334   23  35.2  61.0 1033.4 -9.9 -9.999 -99.9 -99.99 -9.99
2019/11/12 11:00 CST    0.27   0.82   17  348   21  36.0  61.0 1033.4 -9.9 -9.999 -99.9 -99.99 -9.99
2019/11/12 11:06 CST    0.29   0.92   16  342   22  35.8  60.8 1033.3 -9.9 -9.999 -99.9 -99.99 -9.99
2019/11/12 11:12 CST    0.31   0.87   17  341   21  35.4  60.6 1033.2 -9.9 -9.999 -99.9 -99.99 -9.99
2019/11/12 11:18 CST    0.32   1.06   15  333   22  36.0  60.4 1033.3 -9.9 -9.999 -99.9 -99.99 -9.99
2019/11/12 11:24 CST    0.34   0.63   18  336   22  36.1  60.4 1033.1 -9.9 -9.999 -99.9 -99.99 -9.99
2019/11/12 11:30 CST    0.36   0.85   15  334   24  35.6  60.3 1032.8 -9.9 -9.999 -99.9 -99.99 -9.99
2019/11/12 11:36 CST    0.38   0.94   17  341   25  36.3  60.3 1032.9 -9.9 -9.999 -99.9 -99.99 -9.99
2019/11/12 11:42 CST    0.40   0.89   10  329   19  36.5  60.4 1033.0 -9.9 -9.999 -99.9 -99.99 -9.99
2019/11/12 11:48 CST    0.42   0.92   11  330   22  36.5  60.3 1032.9 -9.9 -9.999 -99.9 -99.99 -9.99
2019/11/12 11:54 CST    0.44   0.83   13  335   21  36.3  60.1 1032.8 -9.9 -9.999 -99.9 -99.99 -9.99
2019/11/12 12:00 CST    0.46   0.98   11  322   22  37.0  60.1 1032.8 -9.9 -9.999 -99.9 -99.99 -9.99
2019/11/12 12:06 CST    0.48   1.04   11  324   22  36.9  59.9 1032.8 -9.9 -9.999 -99.9 -99.99 -9.99
2019/11/12 12:12 CST    0.50   0.95    8  322   20  37.6  60.1 1033.0 -9.9 -9.999 -99.9 -99.99 -9.99
2019/11/12 12:18 CST    0.52   1.00   14  332   23  37.6  60.1 1032.8 -9.9 -9.999 -99.9 -99.99 -9.99
2019/11/12 12:24 CST    0.54   0.99    9  325   17  37.6  60.1 1032.8 -9.9 -9.999 -99.9 -99.99 -9.99
2019/11/12 12:30 CST    0.56   1.24    8  308   16  37.8  59.7 1032.6 -9.9 -9.999 -99.9 -99.99 -9.99
2019/11/12 12:36 CST    0.58   1.20    8  321   13  38.3  59.7 1032.4 -9.9 -9.999 -99.9 -99.99 -9.99
2019/11/12 12:42 CST    0.60   1.26    8  315   17  38.1  59.7 1032.4 -9.9 -9.999 -99.9 -99.99 -9.99
2019/11/12 12:48 CST    0.62   1.26   11  307   19  37.8  59.7 1032.4 -9.9 -9.999 -99.9 -99.99 -9.99
2019/11/12 12:54 CST    0.64   1.27   10  307   19  38.5  59.7 1032.3 -9.9 -9.999 -99.9 -99.99 -9.99
2019/11/12 13:00 CST    0.66   1.27    7  313   13  38.5  59.7 1032.2 -9.9 -9.999 -99.9 -99.99 -9.99
2019/11/12 13:06 CST    0.68   1.35   11  308   17  38.5  59.7 1032.1 -9.9 -9.999 -99.9 -99.99 -9.99
2019/11/12 13:12 CST    0.70   1.34    8  320   15  38.5  59.7 1032.0 -9.9 -9.999 -99.9 -99.99 -9.99
2019/11/12 13:18 CST    0.72   1.28    9  323   16  38.8  59.7 1031.9 -9.9 -9.999 -99.9 -99.99 -9.99
2019/11/12 13:24 CST    0.73   1.24   11  330   16  39.0  59.7 1031.7 -9.9 -9.999 -99.9 -99.99 -9.99
2019/11/12 13:30 CST    0.75   1.26    9  308   15  38.8  59.7 1031.5 -9.9 -9.999 -99.9 -99.99 -9.99
2019/11/12 13:36 CST    0.77   1.23    8  312   15  38.8  59.9 1031.5 -9.9 -9.999 -99.9 -99.99 -9.99
2019/11/12 13:42 CST    0.78   1.24    9  323   17  39.2  59.9 1031.3 -9.9 -9.999 -99.9 -99.99 -9.99
2019/11/12 13:48 CST    0.80   1.26    8  307   18  39.0  59.9 1031.2 -9.9 -9.999 -99.9 -99.99 -9.99
2019/11/12 13:54 CST    0.81   1.30    9  327   15  39.6  59.9 1031.0 -9.9 -9.999 -99.9 -99.99 -9.99
2019/11/12 14:00 CST    0.83   1.27    9  334   17  39.9  59.9 1030.9 -9.9 -9.999 -99.9 -99.99 -9.99
2019/11/12 14:06 CST    0.84   1.28   11  333   19  39.6  60.3 1030.8 -9.9 -9.999 -99.9 -99.99 -9.99
2019/11/12 14:12 CST    0.85   1.31   12  334   20  39.4  60.1 1030.7 -9.9 -9.999 -99.9 -99.99 -9.99
2019/11/12 14:18 CST    0.86   1.34    8  332   17  39.9  60.1 1030.8 -9.9 -9.999 -99.9 -99.99 -9.99
2019/11/12 14:24 CST    0.87   1.39   13  341   19  39.7  60.1 1030.6 -9.9 -9.999 -99.9 -99.99 -9.99
2019/11/12 14:30 CST    0.88   1.47   12  333   20  39.2  59.9 1030.5 -9.9 -9.999 -99.9 -99.99 -9.99
2019/11/12 14:36 CST    0.89   1.41   11  331   20  39.4  59.9 1030.5 -9.9 -9.999 -99.9 -99.99 -9.99
2019/11/12 14:42 CST    0.90   1.43   11  325   19  39.6  59.9 1030.4 -9.9 -9.999 -99.9 -99.99 -9.99
2019/11/12 14:48 CST    0.90   1.47   11  337   17  39.9  59.9 1030.4 -9.9 -9.999 -99.9 -99.99 -9.99
2019/11/12 14:54 CST    0.91   1.53   15  336   21  40.1  59.9 1030.3 -9.9 -9.999 -99.9 -99.99 -9.99
2019/11/12 15:00 CST    0.91   1.52    9  321   19  40.1  59.9 1030.5 -9.9 -9.999 -99.9 -99.99 -9.99
2019/11/12 15:06 CST    0.92   1.58   13  336   19  40.3  59.9 1030.3 -9.9 -9.999 -99.9 -99.99 -9.99
2019/11/12 15:12 CST    0.92   1.25    7  311   21  40.1  59.9 1030.4 -9.9 -9.999 -99.9 -99.99 -9.99
2019/11/12 15:18 CST    0.93   1.48   13  335   19  40.1  59.9 1030.1 -9.9 -9.999 -99.9 -99.99 -9.99
2019/11/12 15:24 CST    0.93   1.47   12  336   19  39.9  59.9 1030.1 -9.9 -9.999 -99.9 -99.99 -9.99
2019/11/12 15:30 CST    0.93   1.50   12  332   18  40.3  59.9 1030.0 -9.9 -9.999 -99.9 -99.99 -9.99
2019/11/12 15:36 CST    0.94   1.58   11  341   19  40.8  59.9 1029.9 -9.9 -9.999 -99.9 -99.99 -9.99
2019/11/12 15:42 CST    0.94   1.59   15  339   20  40.3  59.9 1029.9 -9.9 -9.999 -99.9 -99.99 -9.99
2019/11/12 15:48 CST    0.94   1.66   12  339   19  40.8  59.7 1029.8 -9.9 -9.999 -99.9 -99.99 -9.99
2019/11/12 15:54 CST    0.94   1.59   14  334   20  40.6  59.7 1029.8 -9.9 -9.999 -99.9 -99.99 -9.99
2019/11/12 16:00 CST    0.94   1.58   12  333   19  40.8  59.7 1029.7 -9.9 -9.999 -99.9 -99.99 -9.99
2019/11/12 16:06 CST    0.95   1.61   13  346   18  41.0  59.5 1029.7 -9.9 -9.999 -99.9 -99.99 -9.99
2019/11/12 16:12 CST    0.95   1.56   13  341   18  41.4  59.5 1029.9 -9.9 -9.999 -99.9 -99.99 -9.99
2019/11/12 16:18 CST    0.95   1.51   12  345   15  41.4  59.5 1029.8 -9.9 -9.999 -99.9 -99.99 -9.99
2019/11/12 16:24 CST    0.95   1.53   15  352   18  41.2  59.5 1029.7 -9.9 -9.999 -99.9 -99.99 -9.99
2019/11/12 16:30 CST    0.95   1.57   14  344   18  41.2  59.5 1029.6 -9.9 -9.999 -99.9 -99.99 -9.99
2019/11/12 16:36 CST    0.95   1.56   14  346   18  41.2  59.5 1029.6 -9.9 -9.999 -99.9 -99.99 -9.99
2019/11/12 16:42 CST    0.95   1.50   12  352   18  41.5  59.5 1029.6 -9.9 -9.999 -99.9 -99.99 -9.99
2019/11/12 16:48 CST    0.95   1.59   14  349   18  41.7  59.5 1029.5 -9.9 -9.999 -99.9 -99.99 -9.99
2019/11/12 16:54 CST    0.95   1.53   13  356   17  42.1  59.5 1029.6 -9.9 -9.999 -99.9 -99.99 -9.99
2019/11/12 17:00 CST    0.95   1.57   13  339   17  42.1  59.5 1029.7 -9.9 -9.999 -99.9 -99.99 -9.99
2019/11/12 17:06 CST    0.95   1.67   12  347   17  42.3  59.5 1029.8 -9.9 -9.999 -99.9 -99.99 -9.99
2019/11/12 17:12 CST    0.95   1.62   12  347   16  42.3  59.7 1029.7 -9.9 -9.999 -99.9 -99.99 -9.99
2019/11/12 17:18 CST    0.95   1.62   13  348   16  42.4  59.7 1029.7 -9.9 -9.999 -99.9 -99.99 -9.99
2019/11/12 17:24 CST    0.95   1.57   13  342   16  42.4  59.7 1029.6 -9.9 -9.999 -99.9 -99.99 -9.99
2019/11/12 17:30 CST    0.95   1.60   12  334   18  42.8  59.9 1029.7 -9.9 -9.999 -99.9 -99.99 -9.99
2019/11/12 17:36 CST    0.95   1.53   14  343   18  42.8  60.1 1029.6 -9.9 -9.999 -99.9 -99.99 -9.99
2019/11/12 17:42 CST    0.94   1.56   14  345   19  42.8  60.1 1029.7 -9.9 -9.999 -99.9 -99.99 -9.99
2019/11/12 17:48 CST    0.94   1.55   15  345   19  42.8  60.3 1029.6 -9.9 -9.999 -99.9 -99.99 -9.99
2019/11/12 17:54 CST    0.94   1.53   13  346   18  43.0  60.3 1029.7 -9.9 -9.999 -99.9 -99.99 -9.99
2019/11/12 18:00 CST    0.94   1.53   14  349   17  43.0  60.4 1029.7 -9.9 -9.999 -99.9 -99.99 -9.99
2019/11/12 18:06 CST    0.94   1.52   14  348   19  43.0  60.6 1029.8 -9.9 -9.999 -99.9 -99.99 -9.99
2019/11/12 18:12 CST    0.93   1.52   14  349   18  42.8  60.6 1029.9 -9.9 -9.999 -99.9 -99.99 -9.99
2019/11/12 18:18 CST    0.93   1.54   13  338   20  42.8  60.8 1029.8 -9.9 -9.999 -99.9 -99.99 -9.99
2019/11/12 18:24 CST    0.93   1.54   12  347   19  42.8  61.0 1029.8 -9.9 -9.999 -99.9 -99.99 -9.99
2019/11/12 18:30 CST    0.93   1.49   16  355   20  42.4  61.2 1029.8 -9.9 -9.999 -99.9 -99.99 -9.99
2019/11/12 18:36 CST    0.92   1.47   11  350   18  42.8  61.3 1029.9 -9.9 -9.999 -99.9 -99.99 -9.99
2019/11/12 18:42 CST    0.92   1.45   14  349   17  42.4  61.3 1029.8 -9.9 -9.999 -99.9 -99.99 -9.99
2019/11/12 18:48 CST    0.92   1.44   15  351   19  42.4  61.5 1029.9 -9.9 -9.999 -99.9 -99.99 -9.99
2019/11/12 18:54 CST    0.92   1.44   15  350   19  42.3  61.7 1030.0 -9.9 -9.999 -99.9 -99.99 -9.99
2019/11/12 19:00 CST    0.92   1.48   15  351   18  42.3  61.9 1030.1 -9.9 -9.999 -99.9 -99.99 -9.99
2019/11/12 19:06 CST    0.91   1.51   15  349   18  41.9  61.9 1030.1 -9.9 -9.999 -99.9 -99.99 -9.99
2019/11/12 19:12 CST    0.91   1.52   14  353   18  42.1  62.1 1030.2 -9.9 -9.999 -99.9 -99.99 -9.99
2019/11/12 19:18 CST    0.91   1.56   12  351   17  42.1  62.1 1030.5 -9.9 -9.999 -99.9 -99.99 -9.99
2019/11/12 19:24 CST    0.91   1.56   15  351   18  42.1  62.2 1030.5 -9.9 -9.999 -99.9 -99.99 -9.99
2019/11/12 19:30 CST    0.91   1.55   15  358   18  41.9  62.4 1030.5 -9.9 -9.999 -99.9 -99.99 -9.99
2019/11/12 19:36 CST    0.91   1.58   11  343   18  42.1  62.4 1030.7 -9.9 -9.999 -99.9 -99.99 -9.99
2019/11/12 19:42 CST    0.91   1.58   10  356   17  42.1  62.6 1030.6 -9.9 -9.999 -99.9 -99.99 -9.99
2019/11/12 19:48 CST    0.91   1.55   12  356   16  41.9  62.6 1030.4 -9.9 -9.999 -99.9 -99.99 -9.99
2019/11/12 19:54 CST    0.91   1.57   13  355   19  41.7  62.8 1030.5 -9.9 -9.999 -99.9 -99.99 -9.99
2019/11/12 20:00 CST    0.91   1.60   11  355   16  42.1  62.8 1030.5 -9.9 -9.999 -99.9 -99.99 -9.99
2019/11/12 20:06 CST    0.91   1.55   10  347   16  41.9  63.0 1030.7 -9.9 -9.999 -99.9 -99.99 -9.99
2019/11/12 20:12 CST    0.91   1.56   12  352   16  41.7  63.0 1030.5 -9.9 -9.999 -99.9 -99.99 -9.99
2019/11/12 20:18 CST    0.91   1.53   13  345   16  41.7  63.1 1030.5 -9.9 -9.999 -99.9 -99.99 -9.99
2019/11/12 20:24 CST    0.90   1.49   11  348   17  41.9  63.1 1030.6 -9.9 -9.999 -99.9 -99.99 -9.99
2019/11/12 20:30 CST    0.90   1.50   11  345   15  42.3  63.3 1030.5 -9.9 -9.999 -99.9 -99.99 -9.99
2019/11/12 20:36 CST    0.90   1.49   12  351   14  41.5  63.3 1030.4 -9.9 -9.999 -99.9 -99.99 -9.99
2019/11/12 20:42 CST    0.90   1.50   11  341   14  41.7  63.5 1030.5 -9.9 -9.999 -99.9 -99.99 -9.99
2019/11/12 20:48 CST    0.90   1.50   10  343   14  41.5  63.5 1030.6 -9.9 -9.999 -99.9 -99.99 -9.99
2019/11/12 20:54 CST    0.90   1.51   10  343   14  41.5  63.5 1030.6 -9.9 -9.999 -99.9 -99.99 -9.99
2019/11/12 21:00 CST    0.90   1.53    9  346   13  41.7  63.7 1030.5 -9.9 -9.999 -99.9 -99.99 -9.99
2019/11/12 21:06 CST    0.89   1.51   10  348   16  41.9  63.7 1030.5 -9.9 -9.999 -99.9 -99.99 -9.99
2019/11/12 21:12 CST    0.89   1.54    8  351   10  41.7  63.7 1030.6 -9.9 -9.999 -99.9 -99.99 -9.99
2019/11/12 21:18 CST    0.89   1.52    9  346   12  41.7  63.7 1030.6 -9.9 -9.999 -99.9 -99.99 -9.99
2019/11/12 21:24 CST    0.89   1.51    9  346   11  41.7  63.9 1030.6 -9.9 -9.999 -99.9 -99.99 -9.99
2019/11/12 21:30 CST    0.89   1.51   10  355   13  41.9  63.9 1030.5 -9.9 -9.999 -99.9 -99.99 -9.99
2019/11/12 21:36 CST    0.88   1.49   10  358   14  41.9  63.9 1030.4 -9.9 -9.999 -99.9 -99.99 -9.99
2019/11/12 21:42 CST    0.88   1.49   11    1   15  41.9  63.9 1030.3 -9.9 -9.999 -99.9 -99.99 -9.99
2019/11/12 21:48 CST    0.88   1.48   11    3   14  42.1  64.0 1030.3 -9.9 -9.999 -99.9 -99.99 -9.99
2019/11/12 21:54 CST    0.88   1.50    9  360   14  41.9  64.0 1030.4 -9.9 -9.999 -99.9 -99.99 -9.99
2019/11/12 22:00 CST    0.88   1.51    9  359   14  42.1  64.0 1030.5 -9.9 -9.999 -99.9 -99.99 -9.99
2019/11/12 22:06 CST    0.88   1.48    9    3   14  42.3  64.0 1030.5 -9.9 -9.999 -99.9 -99.99 -9.99
2019/11/12 22:12 CST    0.87   1.50    9    7   12  41.9  64.0 1030.4 -9.9 -9.999 -99.9 -99.99 -9.99
2019/11/12 22:18 CST    0.87   1.49   12   15   18  42.6  64.0 1030.2 -9.9 -9.999 -99.9 -99.99 -9.99
2019/11/12 22:24 CST    0.87   1.46   12   22   15  42.4  64.0 1030.2 -9.9 -9.999 -99.9 -99.99 -9.99
2019/11/12 22:30 CST    0.87   1.46   13   18   18  42.4  64.2 1030.2 -9.9 -9.999 -99.9 -99.99 -9.99
2019/11/12 22:36 CST    0.87   1.50   11   16   14  42.3  64.2 1030.2 -9.9 -9.999 -99.9 -99.99 -9.99
2019/11/12 22:42 CST    0.88   1.48   13   12   17  42.4  64.2 1030.3 -9.9 -9.999 -99.9 -99.99 -9.99
2019/11/12 22:48 CST    0.88   1.50   12    5   18  42.3  64.2 1030.5 -9.9 -9.999 -99.9 -99.99 -9.99
2019/11/12 22:54 CST    0.88   1.51   10  348   13  41.7  64.2 1030.5 -9.9 -9.999 -99.9 -99.99 -9.99
2019/11/12 23:00 CST    0.88   1.55    9  354   12  41.5  64.2 1030.5 -9.9 -9.999 -99.9 -99.99 -9.99
2019/11/12 23:06 CST    0.88   1.55   10  354   12  41.5  64.2 1030.4 -9.9 -9.999 -99.9 -99.99 -9.99
2019/11/12 23:12 CST    0.88   1.56   10  348   12  41.9  64.2 1030.4 -9.9 -9.999 -99.9 -99.99 -9.99
2019/11/12 23:18 CST    0.88   1.52   10  346   13  41.7  64.2 1030.3 -9.9 -9.999 -99.9 -99.99 -9.99
2019/11/12 23:24 CST    0.89   1.50   10  344   14  41.7  64.2 1030.3 -9.9 -9.999 -99.9 -99.99 -9.99
2019/11/12 23:30 CST    0.89   1.48   10  348   13  41.9  64.2 1030.4 -9.9 -9.999 -99.9 -99.99 -9.99
2019/11/12 23:36 CST    0.89   1.50    8  343   12  41.9  64.2 1030.5 -9.9 -9.999 -99.9 -99.99 -9.99
2019/11/12 23:42 CST    0.89   1.49    9  343   12  41.5  64.2 1030.3 -9.9 -9.999 -99.9 -99.99 -9.99
2019/11/12 23:48 CST    0.90   1.49   10  342   13  41.4  64.2 1030.4 -9.9 -9.999 -99.9 -99.99 -9.99
2019/11/12 23:54 CST    0.90   1.49    9  340   13  41.5  64.2 1030.4 -9.9 -9.999 -99.9 -99.99 -9.99
2019/11/13 00:00 CST    0.90   1.49   11  342   13  41.4  64.2 1030.4 -9.9 -9.999 -99.9 -99.99 -9.99
2019/11/13 00:06 CST    0.90   1.54   11  349   13  41.4  64.2 1030.2 -9.9 -9.999 -99.9 -99.99 -9.99
2019/11/13 00:12 CST    0.91   1.52   11  352   14  41.5  64.2 1030.1 -9.9 -9.999 -99.9 -99.99 -9.99
2019/11/13 00:18 CST    0.91   1.53   10  341   13  41.4  64.2 1030.2 -9.9 -9.999 -99.9 -99.99 -9.99
2019/11/13 00:24 CST    0.91   1.53    9  335   12  41.5  64.2 1030.3 -9.9 -9.999 -99.9 -99.99 -9.99
2019/11/13 00:30 CST    0.91   1.54   11  340   13  41.2  64.2 1030.2 -9.9 -9.999 -99.9 -99.99 -9.99
2019/11/13 00:36 CST    0.92   1.50    9  343   12  41.5  64.2 1030.3 -9.9 -9.999 -99.9 -99.99 -9.99
2019/11/13 00:42 CST    0.92   1.51    9  344   12  41.4  64.2 1030.5 -9.9 -9.999 -99.9 -99.99 -9.99
2019/11/13 00:48 CST    0.92   1.50    9  342   11  41.4  64.2 1030.5 -9.9 -9.999 -99.9 -99.99 -9.99
2019/11/13 00:54 CST    0.92   1.46   10  342   15  41.2  64.2 1030.5 -9.9 -9.999 -99.9 -99.99 -9.99
2019/11/13 01:00 CST    0.92   1.49    9  335   13  41.4  64.2 1030.4 -9.9 -9.999 -99.9 -99.99 -9.99
2019/11/13 01:06 CST    0.92   1.51    9  338   12  41.4  64.2 1030.4 -9.9 -9.999 -99.9 -99.99 -9.99
2019/11/13 01:12 CST    0.92   1.53   10  339   11  41.2  64.2 1030.3 -9.9 -9.999 -99.9 -99.99 -9.99
2019/11/13 01:18 CST    0.92   1.50   10  339   14  41.0  64.2 1030.2 -9.9 -9.999 -99.9 -99.99 -9.99
2019/11/13 01:24 CST    0.92   1.49    9  338   12  40.8  64.2 1030.3 -9.9 -9.999 -99.9 -99.99 -9.99
2019/11/13 01:30 CST    0.92   1.42    9  340   12  40.8  64.2 1030.1 -9.9 -9.999 -99.9 -99.99 -9.99
2019/11/13 01:36 CST    0.92   1.41   10  351   13  40.6  64.2 1030.0 -9.9 -9.999 -99.9 -99.99 -9.99
2019/11/13 01:42 CST    0.92   1.44   10  348   12  40.5  64.2 1030.0 -9.9 -9.999 -99.9 -99.99 -9.99
2019/11/13 01:48 CST    0.92   1.48   11  349   13  40.5  64.2 1029.9 -9.9 -9.999 -99.9 -99.99 -9.99
2019/11/13 01:54 CST    0.91   1.47   10  346   13  40.5  64.2 1029.9 -9.9 -9.999 -99.9 -99.99 -9.99
2019/11/13 02:00 CST    0.91   1.46   10  340   12  40.8  64.2 1030.0 -9.9 -9.999 -99.9 -99.99 -9.99
2019/11/13 02:06 CST    0.91   1.40    9  344   12  40.6  64.2 1029.9 -9.9 -9.999 -99.9 -99.99 -9.99
2019/11/13 02:12 CST    0.90   1.41   11  352   14  40.3  64.2 1029.6 -9.9 -9.999 -99.9 -99.99 -9.99
2019/11/13 02:18 CST    0.90   1.39   13  349   15  39.9  64.2 1029.4 -9.9 -9.999 -99.9 -99.99 -9.99
2019/11/13 02:24 CST    0.89   1.38   11  359   14  40.5  64.2 1029.5 -9.9 -9.999 -99.9 -99.99 -9.99
2019/11/13 02:30 CST    0.88   1.39   11  351   13  40.1  64.2 1029.4 -9.9 -9.999 -99.9 -99.99 -9.99
2019/11/13 02:36 CST    0.87   1.37   12  354   14  40.3  64.2 1029.3 -9.9 -9.999 -99.9 -99.99 -9.99
2019/11/13 02:42 CST    0.86   1.36   10  345   13  39.9  64.2 1029.3 -9.9 -9.999 -99.9 -99.99 -9.99
2019/11/13 02:48 CST    0.85   1.43   10  341   13  39.6  64.2 1029.2 -9.9 -9.999 -99.9 -99.99 -9.99
2019/11/13 02:54 CST    0.84   1.46    9  342   12  39.7  64.2 1029.2 -9.9 -9.999 -99.9 -99.99 -9.99
2019/11/13 03:00 CST    0.83   1.41    9  330   11  39.6  64.2 1029.2 -9.9 -9.999 -99.9 -99.99 -9.99
2019/11/13 03:06 CST    0.82   1.41    9  342   11  39.6  64.2 1029.0 -9.9 -9.999 -99.9 -99.99 -9.99
2019/11/13 03:12 CST    0.81   1.50   11  339   13  39.6  64.2 1029.0 -9.9 -9.999 -99.9 -99.99 -9.99
2019/11/13 03:18 CST    0.79   1.48    9  350   11  39.4  64.0 1028.9 -9.9 -9.999 -99.9 -99.99 -9.99
2019/11/13 03:24 CST    0.78   1.36    9  358   11  39.9  64.2 1028.8 -9.9 -9.999 -99.9 -99.99 -9.99
2019/11/13 03:30 CST    0.76   1.31   10  357   12  40.3  64.2 1028.6 -9.9 -9.999 -99.9 -99.99 -9.99
2019/11/13 03:36 CST    0.75   1.27   10    1   14  40.1  64.2 1028.5 -9.9 -9.999 -99.9 -99.99 -9.99
2019/11/13 03:42 CST    0.73   1.26   10  355   14  40.3  64.0 1028.4 -9.9 -9.999 -99.9 -99.99 -9.99
2019/11/13 03:48 CST    0.71   1.34   11    2   15  40.3  64.0 1028.4 -9.9 -9.999 -99.9 -99.99 -9.99
2019/11/13 03:54 CST    0.69   1.38   11    1   15  39.9  64.0 1028.3 -9.9 -9.999 -99.9 -99.99 -9.99
2019/11/13 04:00 CST    0.68   1.39   10    3   13  39.7  64.0 1028.2 -9.9 -9.999 -99.9 -99.99 -9.99
2019/11/13 04:06 CST    0.66   1.34   10    8   14  40.1  64.0 1028.0 -9.9 -9.999 -99.9 -99.99 -9.99
2019/11/13 04:12 CST    0.64   1.28   10    4   14  39.9  64.0 1028.0 -9.9 -9.999 -99.9 -99.99 -9.99
2019/11/13 04:18 CST    0.62   1.24   11    3   13  39.7  64.0 1028.0 -9.9 -9.999 -99.9 -99.99 -9.99
2019/11/13 04:24 CST    0.60   1.20   11    5   14  39.7  64.0 1028.0 -9.9 -9.999 -99.9 -99.99 -9.99
2019/11/13 04:30 CST    0.59   1.17   10    6   14  39.4  64.0 1027.9 -9.9 -9.999 -99.9 -99.99 -9.99
2019/11/13 04:36 CST    0.57   1.18   11    5   13  39.6  64.0 1027.8 -9.9 -9.999 -99.9 -99.99 -9.99
2019/11/13 04:42 CST    0.55   1.18   10    6   13  39.6  64.0 1027.6 -9.9 -9.999 -99.9 -99.99 -9.99
2019/11/13 04:48 CST    0.53   1.19   10    6   14  39.7  64.0 1027.6 -9.9 -9.999 -99.9 -99.99 -9.99
2019/11/13 04:54 CST    0.51   1.17   11    4   13  39.7  64.0 1027.5 -9.9 -9.999 -99.9 -99.99 -9.99
2019/11/13 05:00 CST    0.49   1.18    9   10   13  39.7  64.0 1027.4 -9.9 -9.999 -99.9 -99.99 -9.99
2019/11/13 05:06 CST    0.47   1.17   10   10   12  39.9  64.0 1027.4 -9.9 -9.999 -99.9 -99.99 -9.99
2019/11/13 05:12 CST    0.46   1.12   11   17   14  40.3  64.0 1027.5 -9.9 -9.999 -99.9 -99.99 -9.99
2019/11/13 05:18 CST    0.44   1.07   10   22   12  39.7  64.0 1027.5 -9.9 -9.999 -99.9 -99.99 -9.99
2019/11/13 05:24 CST    0.42   1.04    9   21   11  40.1  64.0 1027.7 -9.9 -9.999 -99.9 -99.99 -9.99
2019/11/13 05:30 CST    0.40   1.03   10   26   12  39.6  64.0 1027.6 -9.9 -9.999 -99.9 -99.99 -9.99
2019/11/13 05:36 CST    0.38   1.03   11   27   14  39.9  64.0 1027.4 -9.9 -9.999 -99.9 -99.99 -9.99
2019/11/13 05:42 CST    0.36   1.05   12   24   14  39.6  64.0 1027.2 -9.9 -9.999 -99.9 -99.99 -9.99
2019/11/13 05:48 CST    0.34   1.01   12   26   15  39.0  64.0 1027.2 -9.9 -9.999 -99.9 -99.99 -9.99
2019/11/13 05:54 CST    0.32   0.98   10   24   13  39.6  64.0 1027.2 -9.9 -9.999 -99.9 -99.99 -9.99
2019/11/13 06:00 CST    0.31   0.96   12   21   14  39.0  64.0 1026.9 -9.9 -9.999 -99.9 -99.99 -9.99
2019/11/13 06:06 CST    0.29   0.91   11   24   14  39.0  64.0 1027.0 -9.9 -9.999 -99.9 -99.99 -9.99
2019/11/13 06:12 CST    0.27   0.88   11   21   12  38.8  64.0 1027.0 -9.9 -9.999 -99.9 -99.99 -9.99
2019/11/13 06:18 CST    0.25   0.88   10   21   12  39.0  64.0 1027.1 -9.9 -9.999 -99.9 -99.99 -9.99
2019/11/13 06:24 CST    0.23   0.85    9   20   12  38.7  63.9 1027.2 -9.9 -9.999 -99.9 -99.99 -9.99
2019/11/13 06:30 CST    0.22   0.83    9   22   13  39.0  63.9 1027.3 -9.9 -9.999 -99.9 -99.99 -9.99
2019/11/13 06:36 CST    0.20   0.81    9   19   11  38.7  63.9 1027.2 -9.9 -9.999 -99.9 -99.99 -9.99
2019/11/13 06:42 CST    0.18   0.81    9   17   11  39.0  63.7 1027.1 -9.9 -9.999 -99.9 -99.99 -9.99
2019/11/13 06:48 CST    0.16   0.83    8   19   10  38.8  63.7 1027.2 -9.9 -9.999 -99.9 -99.99 -9.99
2019/11/13 06:54 CST    0.15   0.84    9   16   11  39.0  63.5 1027.3 -9.9 -9.999 -99.9 -99.99 -9.99
2019/11/13 07:00 CST    0.13   0.87    9   21   11  39.0  63.3 1027.2 -9.9 -9.999 -99.9 -99.99 -9.99
2019/11/13 07:06 CST    0.12   0.86    9   22   11  39.0  63.1 1027.2 -9.9 -9.999 -99.9 -99.99 -9.99
2019/11/13 07:12 CST    0.10   0.79    9   20   12  39.4  63.1 1027.3 -9.9 -9.999 -99.9 -99.99 -9.99
2019/11/13 07:18 CST    0.09   0.76    9   20   11  39.0  63.0 1027.4 -9.9 -9.999 -99.9 -99.99 -9.99
2019/11/13 07:24 CST    0.08   0.77    9   24   11  39.6  62.8 1027.4 -9.9 -9.999 -99.9 -99.99 -9.99
2019/11/13 07:30 CST    0.06   0.79    8   22   10  39.4  62.6 1027.6 -9.9 -9.999 -99.9 -99.99 -9.99
2019/11/13 07:36 CST    0.05   0.80    7   19   10  39.7  62.4 1027.6 -9.9 -9.999 -99.9 -99.99 -9.99
2019/11/13 07:42 CST    0.04   0.80    7   15   10  39.7  62.2 1027.7 -9.9 -9.999 -99.9 -99.99 -9.99
2019/11/13 07:48 CST    0.03   0.81    8   23   10  39.7  62.1 1027.5 -9.9 -9.999 -99.9 -99.99 -9.99
2019/11/13 07:54 CST    0.02   0.76    8   23   10  40.1  62.1 1027.6 -9.9 -9.999 -99.9 -99.99 -9.99
2019/11/13 08:00 CST    0.02   0.78    9   25   10  40.1  61.9 1027.6 -9.9 -9.999 -99.9 -99.99 -9.99
2019/11/13 08:06 CST    0.01   0.75    9   22   10  39.9  61.9 1027.6 -9.9 -9.999 -99.9 -99.99 -9.99
2019/11/13 08:12 CST    0.00   0.78    7   25   10  40.6  61.7 1027.6 -9.9 -9.999 -99.9 -99.99 -9.99
2019/11/13 08:18 CST   -0.01   0.78    8   13   10  40.5  61.5 1027.6 -9.9 -9.999 -99.9 -99.99 -9.99
2019/11/13 08:24 CST   -0.01   0.55    7   16   10  40.8  61.7 1027.5 -9.9 -9.999 -99.9 -99.99 -9.99
2019/11/13 08:30 CST   -0.02   0.14    9   18   10  40.5  61.5 1027.6 -9.9 -9.999 -99.9 -99.99 -9.99
2019/11/13 08:36 CST   -0.02   0.95    8   18   10  40.6  60.3 1027.7 -9.9 -9.999 -99.9 -99.99 -9.99
2019/11/13 08:42 CST   -0.02   0.75    7   10   10  40.8  60.3 1027.7 -9.9 -9.999 -99.9 -99.99 -9.99
2019/11/13 08:48 CST   -0.03   0.79    7    9    9  41.0  60.1 1027.6 -9.9 -9.999 -99.9 -99.99 -9.99
2019/11/13 08:54 CST   -0.03   0.75    8   13   10  40.8  60.1 1027.6 -9.9 -9.999 -99.9 -99.99 -9.99
2019/11/13 09:00 CST   -0.03   0.76    8   12   11  41.2  60.1 1027.4 -9.9 -9.999 -99.9 -99.99 -9.99
2019/11/13 09:06 CST   -0.03   0.65   10    9   11  41.4  60.3 1027.4 -9.9 -9.999 -99.9 -99.99 -9.99
2019/11/13 09:12 CST   -0.03   0.65    9    2   11  41.2  60.3 1027.5 -9.9 -9.999 -99.9 -99.99 -9.99
2019/11/13 09:18 CST   -0.03   0.68    9   12   10  41.5  60.3 1027.4 -9.9 -9.999 -99.9 -99.99 -9.99
2019/11/13 09:24 CST   -0.03   0.71    8  355   10  41.9  60.1 1027.5 -9.9 -9.999 -99.9 -99.99 -9.99
2019/11/13 09:30 CST   -0.03   0.76    7  358   10  42.1  60.1 1027.5 -9.9 -9.999 -99.9 -99.99 -9.99
2019/11/13 09:36 CST   -0.02   0.80    8    4   10  41.5  59.9 1027.4 -9.9 -9.999 -99.9 -99.99 -9.99
2019/11/13 09:42 CST   -0.02   0.81    8  353   10  41.9  59.9 1027.4 -9.9 -9.999 -99.9 -99.99 -9.99
2019/11/13 09:48 CST   -0.02   0.81    9  352   10  41.7  59.9 1027.4 -9.9 -9.999 -99.9 -99.99 -9.99
2019/11/13 09:54 CST   -0.01   0.81    9  351   11  41.9  59.9 1027.4 -9.9 -9.999 -99.9 -99.99 -9.99
2019/11/13 10:00 CST   -0.01   0.82    8  359   10  41.9  59.7 1027.3 -9.9 -9.999 -99.9 -99.99 -9.99
2019/11/13 10:06 CST    0.00   0.85    9  350   11  42.1  59.7 1027.2 -9.9 -9.999 -99.9 -99.99 -9.99
2019/11/13 10:12 CST    0.01   1.01    8  352   11  41.9  59.5 1027.1 -9.9 -9.999 -99.9 -99.99 -9.99
2019/11/13 10:18 CST    0.02   0.95    9  353   10  41.7  59.5 1027.0 -9.9 -9.999 -99.9 -99.99 -9.99
2019/11/13 10:24 CST    0.03   1.00    6    0   10  42.1  59.2 1026.9 -9.9 -9.999 -99.9 -99.99 -9.99
2019/11/13 10:30 CST    0.04   0.94    8    2   11  42.4  59.0 1026.9 -9.9 -9.999 -99.9 -99.99 -9.99
2019/11/13 10:36 CST    0.05   0.57    8  357    9  42.6  59.2 1026.9 -9.9 -9.999 -99.9 -99.99 -9.99
2019/11/13 10:42 CST    0.06   1.13    9  339   10  42.3  58.8 1026.9 -9.9 -9.999 -99.9 -99.99 -9.99
2019/11/13 10:48 CST    0.07   1.01    7  352   10  42.8  58.8 1026.8 -9.9 -9.999 -99.9 -99.99 -9.99
2019/11/13 10:54 CST    0.09   1.05    7  346   10  42.4  58.8 1026.8 -9.9 -9.999 -99.9 -99.99 -9.99
2019/11/13 11:00 CST    0.10   1.06    5  335    8  43.0  58.8 1026.7 -9.9 -9.999 -99.9 -99.99 -9.99
2019/11/13 11:06 CST    0.12   1.01    5  329    9  42.8  58.8 1026.6 -9.9 -9.999 -99.9 -99.99 -9.99
2019/11/13 11:12 CST    0.13   1.01    6  342    9  43.0  58.8 1026.6 -9.9 -9.999 -99.9 -99.99 -9.99
2019/11/13 11:18 CST    0.15   1.00    7  339    9  42.4  58.8 1026.4 -9.9 -9.999 -99.9 -99.99 -9.99
2019/11/13 11:24 CST    0.17   1.02    6  335    8  42.8  58.8 1026.1 -9.9 -9.999 -99.9 -99.99 -9.99
2019/11/13 11:30 CST    0.19   1.03    7  329   10  42.6  58.8 1025.9 -9.9 -9.999 -99.9 -99.99 -9.99
2019/11/13 11:36 CST    0.20   1.11    4  311   10  42.6  58.8 1026.0 -9.9 -9.999 -99.9 -99.99 -9.99
2019/11/13 11:42 CST    0.22   1.17    5  310    8  42.6  58.8 1025.9 -9.9 -9.999 -99.9 -99.99 -9.99
2019/11/13 11:48 CST    0.24   1.07    7  326   10  42.8  59.0 1025.8 -9.9 -9.999 -99.9 -99.99 -9.99
2019/11/13 11:54 CST    0.27   1.21    7  329    8  42.6  59.0 1025.7 -9.9 -9.999 -99.9 -99.99 -9.99
2019/11/13 12:00 CST    0.29   1.21    6  336   10  42.8  59.0 1025.6 -9.9 -9.999 -99.9 -99.99 -9.99
2019/11/13 12:06 CST    0.31   1.19    5  314    7  43.2  59.0 1025.5 -9.9 -9.999 -99.9 -99.99 -9.99
2019/11/13 12:12 CST    0.33   1.18    6  311    9  42.6  59.0 1025.4 -9.9 -9.999 -99.9 -99.99 -9.99
2019/11/13 12:18 CST    0.35   1.19    5  314    8  42.8  59.0 1025.3 -9.9 -9.999 -99.9 -99.99 -9.99
2019/11/13 12:24 CST    0.37   1.25    4  317    7  43.0  59.0 1025.0 -9.9 -9.999 -99.9 -99.99 -9.99
2019/11/13 12:30 CST    0.40   1.18    5  295    9  42.6  59.0 1025.0 -9.9 -9.999 -99.9 -99.99 -9.99
2019/11/13 12:36 CST    0.42   1.24    5  320    8  42.8  59.0 1025.0 -9.9 -9.999 -99.9 -99.99 -9.99
2019/11/13 12:42 CST    0.44   1.27    5  328    8  43.3  59.0 1024.6 -9.9 -9.999 -99.9 -99.99 -9.99
2019/11/13 12:48 CST    0.47   1.44    5  336    8  43.5  59.0 1024.5 -9.9 -9.999 -99.9 -99.99 -9.99
2019/11/13 12:54 CST    0.49   1.46    4  318    8  43.7  59.0 1024.3 -9.9 -9.999 -99.9 -99.99 -9.99
2019/11/13 13:00 CST    0.51   1.54    4  316    8  43.7  59.0 1024.1 -9.9 -9.999 -99.9 -99.99 -9.99
2019/11/13 13:06 CST    0.53   1.45    6  336   10  43.5  59.0 1023.9 -9.9 -9.999 -99.9 -99.99 -9.99
2019/11/13 13:12 CST    0.56   1.48    6  326    9  43.5  59.2 1023.7 -9.9 -9.999 -99.9 -99.99 -9.99
2019/11/13 13:18 CST    0.58   1.56    5  330    9  43.9  59.2 1023.5 -9.9 -9.999 -99.9 -99.99 -9.99
2019/11/13 13:24 CST    0.60   1.56    7  344   10  43.9  59.2 1023.4 -9.9 -9.999 -99.9 -99.99 -9.99
2019/11/13 13:30 CST    0.62   1.59    5  334   10  43.9  59.2 1023.4 -9.9 -9.999 -99.9 -99.99 -9.99
2019/11/13 13:36 CST    0.64   1.62    6  323   10  43.9  59.2 1023.1 -9.9 -9.999 -99.9 -99.99 -9.99
2019/11/13 13:42 CST    0.66   1.60    7  335    9  44.1  59.2 1023.0 -9.9 -9.999 -99.9 -99.99 -9.99
2019/11/13 13:48 CST    0.68   1.59    6  340    9  44.1  59.2 1022.9 -9.9 -9.999 -99.9 -99.99 -9.99
2019/11/13 13:54 CST    0.70   1.58    4  327    9  44.1  59.2 1022.8 -9.9 -9.999 -99.9 -99.99 -9.99
2019/11/13 14:00 CST    0.72   1.57    7  336    9  43.9  59.0 1022.7 -9.9 -9.999 -99.9 -99.99 -9.99
2019/11/13 14:06 CST    0.74   1.54    9  337   11  43.5  59.0 1022.5 -9.9 -9.999 -99.9 -99.99 -9.99
2019/11/13 14:12 CST    0.76   1.54    6  333   10  43.9  59.0 1022.4 -9.9 -9.999 -99.9 -99.99 -9.99
2019/11/13 14:18 CST    0.78   1.55    8  345   10  43.7  59.0 1022.2 -9.9 -9.999 -99.9 -99.99 -9.99
2019/11/13 14:24 CST    0.80   1.59    7  338   10  43.9  58.8 1022.1 -9.9 -9.999 -99.9 -99.99 -9.99
2019/11/13 14:30 CST    0.81   1.62    7  344   10  44.1  58.5 1022.0 -9.9 -9.999 -99.9 -99.99 -9.99
2019/11/13 14:36 CST    0.83   1.63    8  338   11  44.1  58.3 1021.9 -9.9 -9.999 -99.9 -99.99 -9.99
2019/11/13 14:42 CST    0.84   1.65    7  351    9  44.6  58.1 1021.9 -9.9 -9.999 -99.9 -99.99 -9.99
2019/11/13 14:48 CST    0.86   1.66    7  341    9  44.4  58.1 1022.1 -9.9 -9.999 -99.9 -99.99 -9.99
2019/11/13 14:54 CST    0.87   1.68    4  324    9  44.6  57.9 1022.3 -9.9 -9.999 -99.9 -99.99 -9.99
2019/11/13 15:00 CST    0.88   1.71    8  300   10  44.6  57.7 1022.5 -9.9 -9.999 -99.9 -99.99 -9.99
2019/11/13 15:06 CST    0.89   1.76    8  294   11  44.1  57.9 1022.6 -9.9 -9.999 -99.9 -99.99 -9.99
2019/11/13 15:12 CST    0.90   1.75    8  304   11  44.1  57.7 1022.5 -9.9 -9.999 -99.9 -99.99 -9.99
2019/11/13 15:18 CST    0.91   1.75    7  338   10  44.2  57.7 1022.1 -9.9 -9.999 -99.9 -99.99 -9.99
2019/11/13 15:24 CST    0.92   1.71    5  315   10  44.4  57.9 1022.3 -9.9 -9.999 -99.9 -99.99 -9.99
2019/11/13 15:30 CST    0.93   1.75    6  341    9  44.4  57.9 1021.8 -9.9 -9.999 -99.9 -99.99 -9.99
2019/11/13 15:36 CST    0.93   1.82    8  342   11  44.2  57.9 1021.8 -9.9 -9.999 -99.9 -99.99 -9.99
2019/11/13 15:42 CST    0.94   1.79    7  336   11  44.2  58.1 1021.7 -9.9 -9.999 -99.9 -99.99 -9.99
2019/11/13 15:48 CST    0.94   1.78    9    4   11  44.1  58.1 1021.5 -9.9 -9.999 -99.9 -99.99 -9.99
2019/11/13 15:54 CST    0.95   1.78    8  349   11  44.2  58.5 1021.7 -9.9 -9.999 -99.9 -99.99 -9.99
2019/11/13 16:00 CST    0.95   1.78    9    1   11  44.4  58.8 1021.4 -9.9 -9.999 -99.9 -99.99 -9.99
2019/11/13 16:06 CST    0.96   1.77    8  348   11  44.2  59.0 1021.6 -9.9 -9.999 -99.9 -99.99 -9.99
2019/11/13 16:12 CST    0.96   1.85    6  327    9  44.2  59.5 1021.8 -9.9 -9.999 -99.9 -99.99 -9.99
2019/11/13 16:18 CST    0.96   1.83    6  329   10  44.4  59.7 1021.9 -9.9 -9.999 -99.9 -99.99 -9.99
2019/11/13 16:24 CST    0.96   1.86    4  316   10  44.6  59.9 1022.1 -9.9 -9.999 -99.9 -99.99 -9.99
2019/11/13 16:30 CST    0.97   1.87    4  321    8  44.8  60.3 1022.2 -9.9 -9.999 -99.9 -99.99 -9.99
2019/11/13 16:36 CST    0.97   1.85    6  336    9  43.9  60.4 1022.0 -9.9 -9.999 -99.9 -99.99 -9.99
2019/11/13 16:42 CST    0.97   1.85    7  339    9  43.9  60.6 1021.9 -9.9 -9.999 -99.9 -99.99 -9.99
2019/11/13 16:48 CST    0.97   1.87    8  349   11  43.7  60.8 1021.4 -9.9 -9.999 -99.9 -99.99 -9.99
2019/11/13 16:54 CST    0.97   1.85    6  332   11  43.5  61.0 1021.5 -9.9 -9.999 -99.9 -99.99 -9.99
2019/11/13 17:00 CST    0.98   1.87    7  339   11  43.9  61.2 1021.3 -9.9 -9.999 -99.9 -99.99 -9.99
2019/11/13 17:06 CST    0.98   1.87    8  342   10  43.7  61.3 1021.3 -9.9 -9.999 -99.9 -99.99 -9.99
2019/11/13 17:12 CST    0.98   1.83    7  347   10  44.4  61.5 1021.2 -9.9 -9.999 -99.9 -99.99 -9.99
2019/11/13 17:18 CST    0.98   1.83    7  342    9  44.2  61.7 1021.2 -9.9 -9.999 -99.9 -99.99 -9.99
2019/11/13 17:24 CST    0.98   1.82    7  344    9  44.4  61.7 1021.2 -9.9 -9.999 -99.9 -99.99 -9.99
2019/11/13 17:30 CST    0.98   1.82    7  335    9  44.4  61.9 1021.2 -9.9 -9.999 -99.9 -99.99 -9.99
2019/11/13 17:36 CST    0.99   1.83    6  337    8  45.0  62.1 1021.2 -9.9 -9.999 -99.9 -99.99 -9.99
2019/11/13 17:42 CST    0.99   1.83    7  335    9  44.8  62.1 1021.2 -9.9 -9.999 -99.9 -99.99 -9.99
2019/11/13 17:48 CST    0.99   1.84    7  339    9  45.0  62.2 1021.2 -9.9 -9.999 -99.9 -99.99 -9.99
2019/11/13 17:54 CST    0.99   1.83    8  336   11  44.8  62.2 1021.3 -9.9 -9.999 -99.9 -99.99 -9.99
2019/11/13 18:00 CST    0.99   1.80    8  348   11  45.0  62.4 1021.2 -9.9 -9.999 -99.9 -99.99 -9.99
2019/11/13 18:06 CST    0.99   1.81    7  349    9  45.0  62.4 1021.1 -9.9 -9.999 -99.9 -99.99 -9.99
2019/11/13 18:12 CST    0.99   1.81    8    2    9  45.0  62.6 1020.8 -9.9 -9.999 -99.9 -99.99 -9.99
2019/11/13 18:18 CST    0.99   1.80    7  360   11  45.3  62.6 1020.8 -9.9 -9.999 -99.9 -99.99 -9.99
2019/11/13 18:24 CST    0.99   1.84    7  351    9  45.1  62.6 1021.1 -9.9 -9.999 -99.9 -99.99 -9.99
2019/11/13 18:30 CST    0.99   1.88    7  352    9  45.1  62.8 1021.1 -9.9 -9.999 -99.9 -99.99 -9.99
2019/11/13 18:36 CST    0.99   1.92    7  360    9  45.3  62.8 1020.9 -9.9 -9.999 -99.9 -99.99 -9.99
2019/11/13 18:42 CST    0.99   1.93    8    4   10  45.1  63.0 1020.8 -9.9 -9.999 -99.9 -99.99 -9.99
2019/11/13 18:48 CST    0.99   1.98    8    9   10  45.3  63.0 1020.9 -9.9 -9.999 -99.9 -99.99 -9.99
2019/11/13 18:54 CST    0.99   1.98    7  359   10  45.7  63.0 1021.0 -9.9 -9.999 -99.9 -99.99 -9.99
2019/11/13 19:00 CST    0.99   1.95    6   13    8  45.9  63.1 1021.2 -9.9 -9.999 -99.9 -99.99 -9.99
2019/11/13 19:06 CST    0.99   1.96    8   17   10  46.0  63.1 1021.4 -9.9 -9.999 -99.9 -99.99 -9.99
2019/11/13 19:12 CST    0.99   1.90    8   21   10  46.2  63.1 1021.3 -9.9 -9.999 -99.9 -99.99 -9.99
2019/11/13 19:18 CST    0.99   1.90    8   11   10  46.0  63.1 1021.5 -9.9 -9.999 -99.9 -99.99 -9.99
2019/11/13 19:24 CST    0.99   1.94    7    2   10  46.0  63.1 1021.6 -9.9 -9.999 -99.9 -99.99 -9.99
2019/11/13 19:30 CST    0.99   1.91    6  357    9  46.2  63.3 1021.6 -9.9 -9.999 -99.9 -99.99 -9.99
2019/11/13 19:36 CST    0.99   1.95    6    4    8  46.0  63.3 1021.6 -9.9 -9.999 -99.9 -99.99 -9.99
2019/11/13 19:42 CST    0.99   1.97    6    5    8  46.2  63.3 1021.6 -9.9 -9.999 -99.9 -99.99 -9.99
2019/11/13 19:48 CST    0.99   1.96    6  357    8  46.0  63.3 1021.6 -9.9 -9.999 -99.9 -99.99 -9.99
2019/11/13 19:54 CST    0.99   1.97    7  353   10  46.0  63.5 1021.6 -9.9 -9.999 -99.9 -99.99 -9.99
2019/11/13 20:00 CST    0.99   2.01    8  358   10  45.9  63.5 1021.6 -9.9 -9.999 -99.9 -99.99 -9.99
2019/11/13 20:06 CST    0.99   1.94    6  354    8  45.3  63.5 1021.5 -9.9 -9.999 -99.9 -99.99 -9.99
2019/11/13 20:12 CST    0.99   1.95    7  358    9  45.5  63.5 1021.4 -9.9 -9.999 -99.9 -99.99 -9.99
2019/11/13 20:18 CST    0.99   1.96    9  352   11  45.1  63.5 1021.5 -9.9 -9.999 -99.9 -99.99 -9.99
2019/11/13 20:24 CST    0.99   1.97    9  349   11  45.1  63.7 1021.4 -9.9 -9.999 -99.9 -99.99 -9.99
2019/11/13 20:30 CST    0.99   1.98    7  354   10  45.1  63.7 1021.4 -9.9 -9.999 -99.9 -99.99 -9.99
2019/11/13 20:36 CST    0.99   1.99    7  358    9  45.3  63.7 1021.3 -9.9 -9.999 -99.9 -99.99 -9.99
2019/11/13 20:42 CST    0.99   1.96    8    3   10  45.7  63.7 1021.3 -9.9 -9.999 -99.9 -99.99 -9.99
2019/11/13 20:48 CST    0.99   1.91    9    7   11  45.5  63.7 1021.1 -9.9 -9.999 -99.9 -99.99 -9.99
2019/11/13 20:54 CST    0.99   1.90   10    6   12  45.7  63.7 1021.0 -9.9 -9.999 -99.9 -99.99 -9.99
2019/11/13 21:00 CST    0.99   1.91    9   16   11  46.0  63.7 1020.8 -9.9 -9.999 -99.9 -99.99 -9.99
2019/11/13 21:06 CST    0.99   1.91   10   16   12  45.7  63.7 1020.8 -9.9 -9.999 -99.9 -99.99 -9.99
2019/11/13 21:12 CST    0.99   1.90   10   21   12  45.5  63.9 1020.7 -9.9 -9.999 -99.9 -99.99 -9.99
2019/11/13 21:18 CST    0.99   1.91   10   18   12  45.9  63.9 1020.8 -9.9 -9.999 -99.9 -99.99 -9.99
2019/11/13 21:24 CST    0.99   1.89   10    9   11  45.7  63.9 1020.8 -9.9 -9.999 -99.9 -99.99 -9.99
2019/11/13 21:30 CST    0.99   1.92    8    4   10  45.7  63.9 1020.8 -9.9 -9.999 -99.9 -99.99 -9.99
2019/11/13 21:36 CST    0.99   1.96    8    1   11  45.7  63.9 1020.9 -9.9 -9.999 -99.9 -99.99 -9.99
2019/11/13 21:42 CST    0.99   1.94    8  357   11  45.7  63.9 1020.9 -9.9 -9.999 -99.9 -99.99 -9.99
2019/11/13 21:48 CST    0.98   1.93    8    3   11  45.3  63.9 1020.8 -9.9 -9.999 -99.9 -99.99 -9.99
2019/11/13 21:54 CST    0.98   1.91    8  354   11  45.3  63.9 1020.8 -9.9 -9.999 -99.9 -99.99 -9.99
2019/11/13 22:00 CST    0.98   1.87    8    0   11  45.5  63.9 1020.9 -9.9 -9.999 -99.9 -99.99 -9.99
2019/11/13 22:06 CST    0.98   1.86    9  355   11  45.3  64.0 1020.9 -9.9 -9.999 -99.9 -99.99 -9.99
2019/11/13 22:12 CST    0.97   1.92    7    3   10  45.3  64.0 1020.9 -9.9 -9.999 -99.9 -99.99 -9.99
2019/11/13 22:18 CST    0.97   1.98    7  342    9  45.0  64.0 1020.9 -9.9 -9.999 -99.9 -99.99 -9.99
2019/11/13 22:24 CST    0.97   2.02    7  332    9  44.4  64.0 1020.9 -9.9 -9.999 -99.9 -99.99 -9.99
2019/11/13 22:30 CST    0.97   2.11    7  335   10  44.2  64.0 1020.8 -9.9 -9.999 -99.9 -99.99 -9.99
2019/11/13 22:36 CST    0.96   2.10    8  338   10  44.4  64.0 1020.7 -9.9 -9.999 -99.9 -99.99 -9.99
2019/11/13 22:42 CST    0.96   2.09    8  344   11  44.1  64.0 1020.5 -9.9 -9.999 -99.9 -99.99 -9.99
2019/11/13 22:48 CST    0.96   1.79    9  340   11  44.2  64.0 1020.4 -9.9 -9.999 -99.9 -99.99 -9.99
2019/11/13 22:54 CST    0.95   1.92    8  349   10  44.1  64.0 1020.4 -9.9 -9.999 -99.9 -99.99 -9.99
2019/11/13 23:00 CST    0.95   1.89    8  356   10  44.4  64.0 1020.3 -9.9 -9.999 -99.9 -99.99 -9.99
2019/11/13 23:06 CST    0.95   1.93    9  349   11  44.2  64.0 1020.3 -9.9 -9.999 -99.9 -99.99 -9.99
2019/11/13 23:12 CST    0.95   1.96    7  339   10  44.6  64.0 1020.3 -9.9 -9.999 -99.9 -99.99 -9.99
2019/11/13 23:18 CST    0.95   2.02    8  340   10  44.8  64.0 1020.2 -9.9 -9.999 -99.9 -99.99 -9.99
2019/11/13 23:24 CST    0.95   2.02    8  345   10  44.6  64.0 1020.2 -9.9 -9.999 -99.9 -99.99 -9.99
2019/11/13 23:30 CST    0.95   1.99    7  343   11  45.0  64.0 1020.3 -9.9 -9.999 -99.9 -99.99 -9.99
2019/11/13 23:36 CST    0.94   1.99    8  349   10  44.4  64.0 1020.3 -9.9 -9.999 -99.9 -99.99 -9.99
2019/11/13 23:42 CST    0.94   1.96    7  343   11  45.0  64.0 1020.2 -9.9 -9.999 -99.9 -99.99 -9.99
2019/11/13 23:48 CST    0.94   1.91    7  339   10  45.0  64.2 1020.1 -9.9 -9.999 -99.9 -99.99 -9.99
2019/11/13 23:54 CST    0.94   1.89    9  341   10  44.8  64.2 1020.0 -9.9 -9.999 -99.9 -99.99 -9.99
2019/11/14 00:00 CST    0.94   1.92    9  347   11  44.8  64.2 1019.8 -9.9 -9.999 -99.9 -99.99 -9.99
2019/11/14 00:06 CST    0.94   1.97    8  351   10  44.8  64.2 1019.6 -9.9 -9.999 -99.9 -99.99 -9.99
2019/11/14 00:12 CST    0.95   1.98    9  355   11  44.8  64.2 1019.6 -9.9 -9.999 -99.9 -99.99 -9.99
2019/11/14 00:18 CST    0.95   1.99   10  357   11  44.4  64.2 1019.4 -9.9 -9.999 -99.9 -99.99 -9.99
2019/11/14 00:24 CST    0.95   2.00    9  358   12  44.8  64.2 1019.4 -9.9 -9.999 -99.9 -99.99 -9.99
2019/11/14 00:30 CST    0.95   1.97   10  350   12  44.6  64.2 1019.2 -9.9 -9.999 -99.9 -99.99 -9.99
2019/11/14 00:36 CST    0.95   1.94   10  355   12  44.6  64.2 1019.2 -9.9 -9.999 -99.9 -99.99 -9.99
2019/11/14 00:42 CST    0.95   1.95    7    3   12  45.3  64.2 1019.1 -9.9 -9.999 -99.9 -99.99 -9.99
2019/11/14 00:48 CST    0.95   1.85    9  353   11  45.1  64.2 1019.3 -9.9 -9.999 -99.9 -99.99 -9.99
2019/11/14 00:54 CST    0.95   1.84    7  350   10  45.5  64.2 1019.3 -9.9 -9.999 -99.9 -99.99 -9.99
2019/11/14 01:00 CST    0.95   1.78    9  353   11  45.5  64.2 1019.2 -9.9 -9.999 -99.9 -99.99 -9.99
2019/11/14 01:06 CST    0.95   1.93    9  352   11  45.5  64.2 1019.1 -9.9 -9.999 -99.9 -99.99 -9.99
2019/11/14 01:12 CST    0.95   2.06    8  342   12  45.7  64.2 1019.3 -9.9 -9.999 -99.9 -99.99 -9.99
2019/11/14 01:18 CST    0.95   2.05    8  343   10  45.5  64.2 1019.3 -9.9 -9.999 -99.9 -99.99 -9.99
2019/11/14 01:24 CST    0.95   2.01    8  337   11  45.7  64.2 1019.4 -9.9 -9.999 -99.9 -99.99 -9.99
2019/11/14 01:30 CST    0.95   1.93   10  347   12  45.3  64.2 1019.3 -9.9 -9.999 -99.9 -99.99 -9.99
2019/11/14 01:36 CST    0.95   1.96    9  351   12  45.5  64.2 1019.3 -9.9 -9.999 -99.9 -99.99 -9.99
2019/11/14 01:42 CST    0.94   1.88    8  353   10  45.3  64.2 1019.5 -9.9 -9.999 -99.9 -99.99 -9.99
2019/11/14 01:48 CST    0.94   1.97    9  351   12  45.3  64.2 1019.4 -9.9 -9.999 -99.9 -99.99 -9.99
2019/11/14 01:54 CST    0.94   2.01   10  347   12  45.3  64.2 1019.3 -9.9 -9.999 -99.9 -99.99 -9.99
2019/11/14 02:00 CST    0.94   2.01   10  342   13  45.5  64.2 1019.2 -9.9 -9.999 -99.9 -99.99 -9.99
2019/11/14 02:06 CST    0.94   2.04    9  347   13  45.5  64.2 1019.2 -9.9 -9.999 -99.9 -99.99 -9.99
2019/11/14 02:12 CST    0.93   2.00   10  334   12  45.5  64.2 1019.3 -9.9 -9.999 -99.9 -99.99 -9.99
2019/11/14 02:18 CST    0.93   2.00    8  301   12  45.3  64.2 1019.6 -9.9 -9.999 -99.9 -99.99 -9.99
2019/11/14 02:24 CST    0.92   1.96    6  320   10  45.7  64.2 1019.4 -9.9 -9.999 -99.9 -99.99 -9.99
2019/11/14 02:30 CST    0.92   2.03    6  310   11  45.5  64.2 1019.6 -9.9 -9.999 -99.9 -99.99 -9.99
2019/11/14 02:36 CST    0.91   1.78    5  305   10  45.3  64.0 1020.0 -9.9 -9.999 -99.9 -99.99 -9.99
2019/11/14 02:42 CST    0.91   1.93    7  314   14  45.5  64.0 1020.0 -9.9 -9.999 -99.9 -99.99 -9.99
2019/11/14 02:48 CST    0.90   1.95    8  317   12  45.0  64.0 1019.6 -9.9 -9.999 -99.9 -99.99 -9.99
2019/11/14 02:54 CST    0.89   1.92   10  333   16  45.0  64.0 1019.5 -9.9 -9.999 -99.9 -99.99 -9.99
2019/11/14 03:00 CST    0.88   1.86    7  319   17  44.6  64.0 1019.6 -9.9 -9.999 -99.9 -99.99 -9.99
2019/11/14 03:06 CST    0.87   1.95   10  343   16  44.4  64.0 1019.4 -9.9 -9.999 -99.9 -99.99 -9.99
2019/11/14 03:12 CST    0.86   1.91   11  347   15  44.4  64.0 1019.4 -9.9 -9.999 -99.9 -99.99 -9.99
2019/11/14 03:18 CST    0.85   1.87   12  346   16  44.1  64.0 1019.2 -9.9 -9.999 -99.9 -99.99 -9.99
2019/11/14 03:24 CST    0.84   1.78   10  349   15  44.2  64.0 1019.3 -9.9 -9.999 -99.9 -99.99 -9.99
2019/11/14 03:30 CST    0.83   1.90   11  356   16  44.1  64.0 1019.2 -9.9 -9.999 -99.9 -99.99 -9.99
2019/11/14 03:36 CST    0.82   1.80   11  358   15  44.2  64.0 1019.4 -9.9 -9.999 -99.9 -99.99 -9.99
2019/11/14 03:42 CST    0.80   1.84   11  340   13  44.4  64.0 1019.7 -9.9 -9.999 -99.9 -99.99 -9.99
2019/11/14 03:48 CST    0.79   1.83   11  334   14  44.1  64.0 1019.9 -9.9 -9.999 -99.9 -99.99 -9.99
2019/11/14 03:54 CST    0.77   1.77   11  339   15  44.2  64.0 1019.8 -9.9 -9.999 -99.9 -99.99 -9.99
2019/11/14 04:00 CST    0.75   1.75   10  349   13  43.7  64.0 1019.4 -9.9 -9.999 -99.9 -99.99 -9.99
2019/11/14 04:06 CST    0.74   1.71   10  354   15  44.2  64.0 1019.3 -9.9 -9.999 -99.9 -99.99 -9.99
2019/11/14 04:12 CST    0.72   1.66   12  356   14  43.9  64.0 1019.2 -9.9 -9.999 -99.9 -99.99 -9.99
2019/11/14 04:18 CST    0.70   1.64   10  352   15  44.2  64.0 1019.4 -9.9 -9.999 -99.9 -99.99 -9.99
2019/11/14 04:24 CST    0.68   1.69   11  358   14  44.8  64.0 1019.0 -9.9 -9.999 -99.9 -99.99 -9.99
2019/11/14 04:30 CST    0.66   1.66   13   10   15  45.3  64.0 1018.4 -9.9 -9.999 -99.9 -99.99 -9.99
2019/11/14 04:36 CST    0.64   1.74   13   10   18  45.7  64.0 1018.1 -9.9 -9.999 -99.9 -99.99 -9.99
2019/11/14 04:42 CST    0.62   1.34   15    4   18  45.5  64.0 1018.3 -9.9 -9.999 -99.9 -99.99 -9.99
2019/11/14 04:48 CST    0.60   1.63   14  356   18  46.0  64.0 1018.7 -9.9 -9.999 -99.9 -99.99 -9.99
2019/11/14 04:54 CST    0.58   1.57   12  347   17  46.2  64.0 1019.4 -9.9 -9.999 -99.9 -99.99 -9.99
2019/11/14 05:00 CST    0.56   1.59    7  307   14  46.0  64.0 1020.0 -9.9 -9.999 -99.9 -99.99 -9.99
2019/11/14 05:06 CST    0.54   1.57    7  306   12  45.5  64.0 1019.9 -9.9 -9.999 -99.9 -99.99 -9.99
2019/11/14 05:12 CST    0.52   1.60    7  302   10  45.3  64.0 1019.9 -9.9 -9.999 -99.9 -99.99 -9.99
2019/11/14 05:18 CST    0.50   1.51    7  334   12  45.1  64.0 1019.7 -9.9 -9.999 -99.9 -99.99 -9.99
2019/11/14 05:24 CST    0.48   1.44    9  337   13  45.1  64.0 1019.6 -9.9 -9.999 -99.9 -99.99 -9.99
2019/11/14 05:30 CST    0.46   1.50   10   12   12  45.3  64.0 1019.1 -9.9 -9.999 -99.9 -99.99 -9.99
2019/11/14 05:36 CST    0.44   1.53   10   18   13  45.3  63.9 1019.0 -9.9 -9.999 -99.9 -99.99 -9.99
2019/11/14 05:42 CST    0.43   1.47   10   11   13  46.0  63.9 1019.1 -9.9 -9.999 -99.9 -99.99 -9.99
2019/11/14 05:48 CST    0.41   1.46   10   14   12  46.6  63.9 1019.3 -9.9 -9.999 -99.9 -99.99 -9.99
2019/11/14 05:54 CST    0.39   1.50   10    5   14  46.8  63.9 1019.5 -9.9 -9.999 -99.9 -99.99 -9.99
2019/11/14 06:00 CST    0.37   1.44   10    6   13  46.8  63.9 1019.5 -9.9 -9.999 -99.9 -99.99 -9.99
2019/11/14 06:06 CST    0.35   1.43   10  356   12  46.9  63.9 1019.7 -9.9 -9.999 -99.9 -99.99 -9.99
2019/11/14 06:12 CST    0.33   1.39    9  340   14  47.3  63.9 1020.2 -9.9 -9.999 -99.9 -99.99 -9.99
2019/11/14 06:18 CST    0.31   1.39    7  330   11  46.8  63.9 1020.2 -9.9 -9.999 -99.9 -99.99 -9.99
2019/11/14 06:24 CST    0.29   1.37    9  341   14  46.4  63.9 1020.2 -9.9 -9.999 -99.9 -99.99 -9.99
2019/11/14 06:30 CST    0.28   1.34    8    6   10  46.2  63.9 1020.0 -9.9 -9.999 -99.9 -99.99 -9.99
2019/11/14 06:36 CST    0.26   1.28   10   10   12  46.4  63.9 1019.8 -9.9 -9.999 -99.9 -99.99 -9.99
2019/11/14 06:42 CST    0.24   1.25    9   21   11  46.9  63.7 1019.7 -9.9 -9.999 -99.9 -99.99 -9.99
2019/11/14 06:48 CST    0.22   1.18    8   11   11  47.7  63.7 1020.0 -9.9 -9.999 -99.9 -99.99 -9.99
2019/11/14 06:54 CST    0.20   1.18    7  326   11  47.5  63.7 1020.5 -9.9 -9.999 -99.9 -99.99 -9.99
2019/11/14 07:00 CST    0.19   1.22    6  331   10  47.3  63.7 1020.6 -9.9 -9.999 -99.9 -99.99 -9.99
2019/11/14 07:06 CST    0.17   1.24    8  333   10  47.7  63.7 1020.7 -9.9 -9.999 -99.9 -99.99 -9.99
2019/11/14 07:12 CST    0.15   1.27    4  306   10  47.5  63.7 1020.8 -9.9 -9.999 -99.9 -99.99 -9.99
2019/11/14 07:18 CST    0.13   1.22    6  327   12  47.3  63.7 1020.9 -9.9 -9.999 -99.9 -99.99 -9.99
2019/11/14 07:24 CST    0.12   1.14    5  291    8  46.9  63.7 1021.0 -9.9 -9.999 -99.9 -99.99 -9.99
2019/11/14 07:30 CST    0.10   1.09    9  340   11  46.8  63.5 1020.8 -9.9 -9.999 -99.9 -99.99 -9.99
2019/11/14 07:36 CST    0.09   1.03    4  297   11  46.8  63.5 1021.0 -9.9 -9.999 -99.9 -99.99 -9.99
2019/11/14 07:42 CST    0.07   1.04   10  347   12  46.8  63.5 1020.7 -9.9 -9.999 -99.9 -99.99 -9.99
2019/11/14 07:48 CST    0.06   1.12    7  325   13  46.9  63.5 1020.9 -9.9 -9.999 -99.9 -99.99 -9.99
2019/11/14 07:54 CST    0.04   1.14    7  340   12  47.3  63.5 1021.0 -9.9 -9.999 -99.9 -99.99 -9.99
2019/11/14 08:00 CST    0.03   1.13    7  329   11  46.9  63.3 1021.1 -9.9 -9.999 -99.9 -99.99 -9.99
2019/11/14 08:06 CST    0.02   1.19    8  341   12  47.1  63.3 1021.1 -9.9 -9.999 -99.9 -99.99 -9.99
2019/11/14 08:12 CST    0.00   1.15    6  312   10  47.1  63.3 1021.3 -9.9 -9.999 -99.9 -99.99 -9.99
2019/11/14 08:18 CST   -0.01   0.65    9  337   12  47.1  63.3 1021.2 -9.9 -9.999 -99.9 -99.99 -9.99
2019/11/14 08:24 CST   -0.02   0.83    6  323   12  47.3  63.0 1021.3 -9.9 -9.999 -99.9 -99.99 -9.99
2019/11/14 08:30 CST   -0.03   0.95    6  329   11  47.3  62.8 1021.4 -9.9 -9.999 -99.9 -99.99 -9.99
2019/11/14 08:36 CST   -0.04   0.98   10  343   12  47.3  63.0 1021.3 -9.9 -9.999 -99.9 -99.99 -9.99
2019/11/14 08:42 CST   -0.05   0.99    8  342   12  47.8  62.8 1021.4 -9.9 -9.999 -99.9 -99.99 -9.99
2019/11/14 08:48 CST   -0.05   1.02    8  347   12  48.0  62.8 1021.4 -9.9 -9.999 -99.9 -99.99 -9.99
2019/11/14 08:54 CST   -0.06   1.01   11  341   14  47.8  62.8 1021.6 -9.9 -9.999 -99.9 -99.99 -9.99
2019/11/14 09:00 CST   -0.07   1.00    9  340   14  48.2  62.8 1021.8 -9.9 -9.999 -99.9 -99.99 -9.99
2019/11/14 09:06 CST   -0.07   0.96   11  342   14  48.0  62.8 1021.8 -9.9 -9.999 -99.9 -99.99 -9.99
2019/11/14 09:12 CST   -0.08   0.98    9  343   12  48.4  62.6 1022.0 -9.9 -9.999 -99.9 -99.99 -9.99
2019/11/14 09:18 CST   -0.08   0.98   11  347   14  48.4  62.6 1021.9 -9.9 -9.999 -99.9 -99.99 -9.99
2019/11/14 09:24 CST   -0.08   0.96   11  348   14  48.4  62.6 1022.1 -9.9 -9.999 -99.9 -99.99 -9.99
2019/11/14 09:30 CST   -0.08   0.97    9  332   14  48.6  62.6 1022.2 -9.9 -9.999 -99.9 -99.99 -9.99
2019/11/14 09:36 CST   -0.09   1.00    9  344   14  49.1  62.6 1022.1 -9.9 -9.999 -99.9 -99.99 -9.99
2019/11/14 09:42 CST   -0.09   1.03   11  353   15  48.7  62.4 1022.1 -9.9 -9.999 -99.9 -99.99 -9.99
2019/11/14 09:48 CST   -0.09   1.11   11  354   14  48.7  62.4 1022.1 -9.9 -9.999 -99.9 -99.99 -9.99
2019/11/14 09:54 CST   -0.09   0.82   12  359   15  49.3  62.2 1022.0 -9.9 -9.999 -99.9 -99.99 -9.99
2019/11/14 10:00 CST   -0.09   1.36   11  356   15  49.5  61.5 1022.2 -9.9 -9.999 -99.9 -99.99 -9.99
2019/11/14 10:06 CST   -0.08   1.12   10  350   15  49.6  61.5 1022.3 -9.9 -9.999 -99.9 -99.99 -9.99
2019/11/14 10:12 CST   -0.08   1.18   12  349   14  49.6  61.5 1022.4 -9.9 -9.999 -99.9 -99.99 -9.99
2019/11/14 10:18 CST   -0.08   1.26   10  343   15  50.0  61.5 1022.5 -9.9 -9.999 -99.9 -99.99 -9.99
2019/11/14 10:24 CST   -0.08   1.23   11  352   14  49.8  61.5 1022.4 -9.9 -9.999 -99.9 -99.99 -9.99
2019/11/14 10:30 CST   -0.07   1.18   12  351   15  49.8  61.5 1022.4 -9.9 -9.999 -99.9 -99.99 -9.99
2019/11/14 10:36 CST   -0.07   1.21   12  352   15  49.8  61.5 1022.4 -9.9 -9.999 -99.9 -99.99 -9.99
2019/11/14 10:42 CST   -0.06   1.10   12  352   15  50.0  61.5 1022.2 -9.9 -9.999 -99.9 -99.99 -9.99
2019/11/14 10:48 CST   -0.05   1.17   11  353   14  50.2  61.5 1022.3 -9.9 -9.999 -99.9 -99.99 -9.99
2019/11/14 10:54 CST   -0.05   1.23   11  345   14  50.2  61.5 1022.4 -9.9 -9.999 -99.9 -99.99 -9.99
2019/11/14 11:00 CST   -0.04   1.27   12  357   14  50.5  61.5 1022.4 -9.9 -9.999 -99.9 -99.99 -9.99
2019/11/14 11:06 CST   -0.03   1.27   12  354   16  50.5  61.5 1022.3 -9.9 -9.999 -99.9 -99.99 -9.99
2019/11/14 11:12 CST   -0.02   0.91   11  349   14  50.4  61.5 1022.3 -9.9 -9.999 -99.9 -99.99 -9.99
2019/11/14 11:18 CST   -0.00   1.18   12  354   15  50.5  61.5 1022.3 -9.9 -9.999 -99.9 -99.99 -9.99
2019/11/14 11:24 CST    0.01   1.23   11  351   15  50.9  61.5 1022.3 -9.9 -9.999 -99.9 -99.99 -9.99
2019/11/14 11:30 CST    0.02   1.28   13  352   16  50.9  61.3 1022.3 -9.9 -9.999 -99.9 -99.99 -9.99
2019/11/14 11:36 CST    0.04   1.26   14  358   17  50.7  61.3 1022.2 -9.9 -9.999 -99.9 -99.99 -9.99
2019/11/14 11:42 CST    0.05   1.30   13  359   17  50.9  61.3 1022.3 -9.9 -9.999 -99.9 -99.99 -9.99
2019/11/14 11:48 CST    0.07   1.29   13  353   17  50.9  61.3 1022.4 -9.9 -9.999 -99.9 -99.99 -9.99
2019/11/14 11:54 CST    0.09   1.32   12    5   16  50.7  61.3 1022.3 -9.9 -9.999 -99.9 -99.99 -9.99
2019/11/14 12:00 CST    0.11   1.34   13    7   17  50.9  61.3 1022.3 -9.9 -9.999 -99.9 -99.99 -9.99
2019/11/14 12:06 CST    0.12   1.37   11    1   16  50.7  61.3 1022.4 -9.9 -9.999 -99.9 -99.99 -9.99
2019/11/14 12:12 CST    0.14   1.04   12    5   16  50.9  61.3 1022.4 -9.9 -9.999 -99.9 -99.99 -9.99
2019/11/14 12:18 CST    0.16   1.01   12   10   17  50.5  61.3 1022.4 -9.9 -9.999 -99.9 -99.99 -9.99
2019/11/14 12:24 CST    0.19   1.31   13    5   17  50.4  61.3 1022.2 -9.9 -9.999 -99.9 -99.99 -9.99
2019/11/14 12:30 CST    0.21   1.39   13    8   17  50.2  61.3 1022.2 -9.9 -9.999 -99.9 -99.99 -9.99
2019/11/14 12:36 CST    0.23   1.33   14    1   16  50.2  61.2 1022.2 -9.9 -9.999 -99.9 -99.99 -9.99
2019/11/14 12:42 CST    0.25   1.29   13    6   17  50.0  61.2 1022.2 -9.9 -9.999 -99.9 -99.99 -9.99
2019/11/14 12:48 CST    0.28   1.40   14  355   16  49.5  61.2 1022.1 -9.9 -9.999 -99.9 -99.99 -9.99
2019/11/14 12:54 CST    0.30   1.48   13  358   17  49.8  61.2 1022.0 -9.9 -9.999 -99.9 -99.99 -9.99
2019/11/14 13:00 CST    0.32   1.50   13    7   17  49.5  61.2 1021.9 -9.9 -9.999 -99.9 -99.99 -9.99
2019/11/14 13:06 CST    0.35   1.64   11  355   17  49.8  61.2 1022.0 -9.9 -9.999 -99.9 -99.99 -9.99
2019/11/14 13:12 CST    0.37   1.62   12    2   17  49.1  61.0 1022.0 -9.9 -9.999 -99.9 -99.99 -9.99
2019/11/14 13:18 CST    0.40   1.60   11  340   16  49.1  61.0 1022.0 -9.9 -9.999 -99.9 -99.99 -9.99
2019/11/14 13:24 CST    0.42   1.61   11  347   15  48.9  61.0 1022.0 -9.9 -9.999 -99.9 -99.99 -9.99
2019/11/14 13:30 CST    0.45   1.69   12  346   15  48.7  61.0 1022.1 -9.9 -9.999 -99.9 -99.99 -9.99
2019/11/14 13:36 CST    0.47   1.68   10  344   15  48.7  61.0 1022.1 -9.9 -9.999 -99.9 -99.99 -9.99
2019/11/14 13:42 CST    0.49   1.68   13  355   16  48.6  61.0 1022.1 -9.9 -9.999 -99.9 -99.99 -9.99
2019/11/14 13:48 CST    0.52   1.75   11  351   17  48.7  61.0 1022.2 -9.9 -9.999 -99.9 -99.99 -9.99
2019/11/14 13:54 CST    0.54   1.78   12  349   14  48.4  61.0 1022.2 -9.9 -9.999 -99.9 -99.99 -9.99
2019/11/14 14:00 CST    0.57   1.76   13  340   15  48.2  61.0 1022.2 -9.9 -9.999 -99.9 -99.99 -9.99
2019/11/14 14:06 CST    0.59   1.82   11  350   16  48.4  61.0 1022.2 -9.9 -9.999 -99.9 -99.99 -9.99
2019/11/14 14:12 CST    0.61   1.81   12  352   16  48.4  60.8 1022.2 -9.9 -9.999 -99.9 -99.99 -9.99
2019/11/14 14:18 CST    0.63   1.81    9    8   14  48.2  60.8 1022.1 -9.9 -9.999 -99.9 -99.99 -9.99
2019/11/14 14:24 CST    0.66   1.85   10  342   16  48.2  60.8 1022.1 -9.9 -9.999 -99.9 -99.99 -9.99
2019/11/14 14:30 CST    0.68   1.88   10    2   17  48.2  60.8 1022.2 -9.9 -9.999 -99.9 -99.99 -9.99
2019/11/14 14:36 CST    0.70   1.88   10    9   16  48.0  60.8 1022.3 -9.9 -9.999 -99.9 -99.99 -9.99
2019/11/14 14:42 CST    0.72   1.90    7  354   15  48.0  60.3 1022.4 -9.9 -9.999 -99.9 -99.99 -9.99
2019/11/14 14:48 CST    0.74   1.94    7  357   15  48.0  60.1 1022.5 -9.9 -9.999 -99.9 -99.99 -9.99
2019/11/14 14:54 CST    0.76   1.95    7  346   12  47.8  59.7 1022.6 -9.9 -9.999 -99.9 -99.99 -9.99
2019/11/14 15:00 CST    0.78   1.92    6    2   14  47.8  59.5 1022.8 -9.9 -9.999 -99.9 -99.99 -9.99
2019/11/14 15:06 CST    0.79   1.93    7    3   12  47.7  59.4 1022.8 -9.9 -9.999 -99.9 -99.99 -9.99
2019/11/14 15:12 CST    0.81   1.94    8  357   14  47.5  59.2 1022.9 -9.9 -9.999 -99.9 -99.99 -9.99
2019/11/14 15:18 CST    0.83 -99.99 -999 -999 -999 -99.9 -99.9 -999.9 -9.9 -9.999 -99.9 -99.99 -9.99
2019/11/14 15:24 CST    0.84 -99.99 -999 -999 -999 -99.9 -99.9 -999.9 -9.9 -9.999 -99.9 -99.99 -9.99
2019/11/14 15:30 CST    0.86 -99.99 -999 -999 -999 -99.9 -99.9 -999.9 -9.9 -9.999 -99.9 -99.99 -9.99